<?xml version="1.0" encoding="UTF-8" standalone="no" ?>
<gpx xmlns="http://www.topografix.com/GPX/1/1" xmlns:xsi="http://www.w3.org/2001/XMLSchema-instance" xsi:schemaLocation="http://www.topografix.com/GPX/1/1 http://www.topografix.com/GPX/1/1/gpx.xsd" version="1.1" creator="VisuGPX - https://www.visugpx.com">
  <metadata>
    <name>La Viale à Montbrison sur Lez</name>
    <desc><![CDATA[Balade sur les contreforts de la montagne de la Lance]]></desc>
  </metadata>
  <trk>
    <name><![CDATA[2017-04-17 14:31:16]]></name>
    <trkseg>
      <trkpt lat="44.43662" lon="5.01698">
        <ele>296.22</ele>
        <time>2017-04-17T07:30:09Z</time>
      </trkpt>
      <trkpt lat="44.43662" lon="5.01698">
        <ele>296.22</ele>
        <time>2017-04-17T07:30:10Z</time>
      </trkpt>
      <trkpt lat="44.43662" lon="5.017">
        <ele>295.26</ele>
        <time>2017-04-17T07:30:41Z</time>
      </trkpt>
      <trkpt lat="44.43661" lon="5.01701">
        <ele>296.22</ele>
        <time>2017-04-17T07:30:50Z</time>
      </trkpt>
      <trkpt lat="44.4366" lon="5.01701">
        <ele>294.78</ele>
        <time>2017-04-17T07:31:05Z</time>
      </trkpt>
      <trkpt lat="44.43659" lon="5.017">
        <ele>294.78</ele>
        <time>2017-04-17T07:31:21Z</time>
      </trkpt>
      <trkpt lat="44.43659" lon="5.01702">
        <ele>295.74</ele>
        <time>2017-04-17T07:31:29Z</time>
      </trkpt>
      <trkpt lat="44.4366" lon="5.01703">
        <ele>295.26</ele>
        <time>2017-04-17T07:31:58Z</time>
      </trkpt>
      <trkpt lat="44.43661" lon="5.01704">
        <ele>296.22</ele>
        <time>2017-04-17T07:32:12Z</time>
      </trkpt>
      <trkpt lat="44.43663" lon="5.01701">
        <ele>291.42</ele>
        <time>2017-04-17T07:32:28Z</time>
      </trkpt>
      <trkpt lat="44.43663" lon="5.01701">
        <ele>301.51</ele>
        <time>2017-04-17T07:32:29Z</time>
      </trkpt>
      <trkpt lat="44.43663" lon="5.01702">
        <ele>296.7</ele>
        <time>2017-04-17T07:32:30Z</time>
      </trkpt>
      <trkpt lat="44.43672" lon="5.01712">
        <ele>293.34</ele>
        <time>2017-04-17T07:32:44Z</time>
      </trkpt>
      <trkpt lat="44.43673" lon="5.01717">
        <ele>296.7</ele>
        <time>2017-04-17T07:32:49Z</time>
      </trkpt>
      <trkpt lat="44.43673" lon="5.01718">
        <ele>296.7</ele>
        <time>2017-04-17T07:32:50Z</time>
      </trkpt>
      <trkpt lat="44.4367" lon="5.01741">
        <ele>295.74</ele>
        <time>2017-04-17T07:33:09Z</time>
      </trkpt>
      <trkpt lat="44.43669" lon="5.01743">
        <ele>296.7</ele>
        <time>2017-04-17T07:33:11Z</time>
      </trkpt>
      <trkpt lat="44.43666" lon="5.01766">
        <ele>297.18</ele>
        <time>2017-04-17T07:33:29Z</time>
      </trkpt>
      <trkpt lat="44.43663" lon="5.01789">
        <ele>298.15</ele>
        <time>2017-04-17T07:33:48Z</time>
      </trkpt>
      <trkpt lat="44.43662" lon="5.01815">
        <ele>298.63</ele>
        <time>2017-04-17T07:34:09Z</time>
      </trkpt>
      <trkpt lat="44.4367" lon="5.0183">
        <ele>299.11</ele>
        <time>2017-04-17T07:34:26Z</time>
      </trkpt>
      <trkpt lat="44.43682" lon="5.01839">
        <ele>299.11</ele>
        <time>2017-04-17T07:34:41Z</time>
      </trkpt>
      <trkpt lat="44.43694" lon="5.0185">
        <ele>299.59</ele>
        <time>2017-04-17T07:34:58Z</time>
      </trkpt>
      <trkpt lat="44.4371" lon="5.01864">
        <ele>299.11</ele>
        <time>2017-04-17T07:35:18Z</time>
      </trkpt>
      <trkpt lat="44.43716" lon="5.01873">
        <ele>299.59</ele>
        <time>2017-04-17T07:35:30Z</time>
      </trkpt>
      <trkpt lat="44.43713" lon="5.01875">
        <ele>301.03</ele>
        <time>2017-04-17T07:35:47Z</time>
      </trkpt>
      <trkpt lat="44.43713" lon="5.01876">
        <ele>299.59</ele>
        <time>2017-04-17T07:35:53Z</time>
      </trkpt>
      <trkpt lat="44.43715" lon="5.01874">
        <ele>299.59</ele>
        <time>2017-04-17T07:36:08Z</time>
      </trkpt>
      <trkpt lat="44.43715" lon="5.01876">
        <ele>299.59</ele>
        <time>2017-04-17T07:36:16Z</time>
      </trkpt>
      <trkpt lat="44.43714" lon="5.01877">
        <ele>294.3</ele>
        <time>2017-04-17T07:36:18Z</time>
      </trkpt>
      <trkpt lat="44.43713" lon="5.01877">
        <ele>304.88</ele>
        <time>2017-04-17T07:36:19Z</time>
      </trkpt>
      <trkpt lat="44.43712" lon="5.01877">
        <ele>300.07</ele>
        <time>2017-04-17T07:36:20Z</time>
      </trkpt>
      <trkpt lat="44.43707" lon="5.01879">
        <ele>300.07</ele>
        <time>2017-04-17T07:36:25Z</time>
      </trkpt>
      <trkpt lat="44.43685" lon="5.0188">
        <ele>300.07</ele>
        <time>2017-04-17T07:36:47Z</time>
      </trkpt>
      <trkpt lat="44.43667" lon="5.01885">
        <ele>300.55</ele>
        <time>2017-04-17T07:37:09Z</time>
      </trkpt>
      <trkpt lat="44.43657" lon="5.01892">
        <ele>302.47</ele>
        <time>2017-04-17T07:37:23Z</time>
      </trkpt>
      <trkpt lat="44.43654" lon="5.01902">
        <ele>302.47</ele>
        <time>2017-04-17T07:37:32Z</time>
      </trkpt>
      <trkpt lat="44.43652" lon="5.01916">
        <ele>301.99</ele>
        <time>2017-04-17T07:37:51Z</time>
      </trkpt>
      <trkpt lat="44.43653" lon="5.01917">
        <ele>301.99</ele>
        <time>2017-04-17T07:38:11Z</time>
      </trkpt>
      <trkpt lat="44.43653" lon="5.01917">
        <ele>301.99</ele>
        <time>2017-04-17T07:38:30Z</time>
      </trkpt>
      <trkpt lat="44.43654" lon="5.01907">
        <ele>301.99</ele>
        <time>2017-04-17T07:38:42Z</time>
      </trkpt>
      <trkpt lat="44.43657" lon="5.01899">
        <ele>301.99</ele>
        <time>2017-04-17T07:38:49Z</time>
      </trkpt>
      <trkpt lat="44.43659" lon="5.01898">
        <ele>301.99</ele>
        <time>2017-04-17T07:38:51Z</time>
      </trkpt>
      <trkpt lat="44.43661" lon="5.01898">
        <ele>301.51</ele>
        <time>2017-04-17T07:38:59Z</time>
      </trkpt>
      <trkpt lat="44.43685" lon="5.01888">
        <ele>300.55</ele>
        <time>2017-04-17T07:39:23Z</time>
      </trkpt>
      <trkpt lat="44.43708" lon="5.01881">
        <ele>300.55</ele>
        <time>2017-04-17T07:39:44Z</time>
      </trkpt>
      <trkpt lat="44.43727" lon="5.01881">
        <ele>300.07</ele>
        <time>2017-04-17T07:40:02Z</time>
      </trkpt>
      <trkpt lat="44.43744" lon="5.01873">
        <ele>300.07</ele>
        <time>2017-04-17T07:40:20Z</time>
      </trkpt>
      <trkpt lat="44.43764" lon="5.01864">
        <ele>299.59</ele>
        <time>2017-04-17T07:40:40Z</time>
      </trkpt>
      <trkpt lat="44.43782" lon="5.01858">
        <ele>299.59</ele>
        <time>2017-04-17T07:40:59Z</time>
      </trkpt>
      <trkpt lat="44.43796" lon="5.01853">
        <ele>299.11</ele>
        <time>2017-04-17T07:41:15Z</time>
      </trkpt>
      <trkpt lat="44.43803" lon="5.01851">
        <ele>299.11</ele>
        <time>2017-04-17T07:41:23Z</time>
      </trkpt>
      <trkpt lat="44.43806" lon="5.01865">
        <ele>299.11</ele>
        <time>2017-04-17T07:41:39Z</time>
      </trkpt>
      <trkpt lat="44.43804" lon="5.01872">
        <ele>299.11</ele>
        <time>2017-04-17T07:41:46Z</time>
      </trkpt>
      <trkpt lat="44.43795" lon="5.01896">
        <ele>299.11</ele>
        <time>2017-04-17T07:42:03Z</time>
      </trkpt>
      <trkpt lat="44.4379" lon="5.01915">
        <ele>300.07</ele>
        <time>2017-04-17T07:42:17Z</time>
      </trkpt>
      <trkpt lat="44.4379" lon="5.01921">
        <ele>301.03</ele>
        <time>2017-04-17T07:42:20Z</time>
      </trkpt>
      <trkpt lat="44.43788" lon="5.01946">
        <ele>300.55</ele>
        <time>2017-04-17T07:42:38Z</time>
      </trkpt>
      <trkpt lat="44.43785" lon="5.01972">
        <ele>300.07</ele>
        <time>2017-04-17T07:42:56Z</time>
      </trkpt>
      <trkpt lat="44.43784" lon="5.01992">
        <ele>300.55</ele>
        <time>2017-04-17T07:43:11Z</time>
      </trkpt>
      <trkpt lat="44.43783" lon="5.01998">
        <ele>301.99</ele>
        <time>2017-04-17T07:43:16Z</time>
      </trkpt>
      <trkpt lat="44.43783" lon="5.02">
        <ele>300.55</ele>
        <time>2017-04-17T07:43:18Z</time>
      </trkpt>
      <trkpt lat="44.43785" lon="5.02004">
        <ele>300.55</ele>
        <time>2017-04-17T07:43:22Z</time>
      </trkpt>
      <trkpt lat="44.4379" lon="5.02006">
        <ele>302.47</ele>
        <time>2017-04-17T07:43:26Z</time>
      </trkpt>
      <trkpt lat="44.43801" lon="5.02017">
        <ele>301.51</ele>
        <time>2017-04-17T07:43:41Z</time>
      </trkpt>
      <trkpt lat="44.438" lon="5.02014">
        <ele>301.99</ele>
        <time>2017-04-17T07:44:01Z</time>
      </trkpt>
      <trkpt lat="44.43799" lon="5.02012">
        <ele>302.95</ele>
        <time>2017-04-17T07:44:29Z</time>
      </trkpt>
      <trkpt lat="44.43805" lon="5.02021">
        <ele>302.95</ele>
        <time>2017-04-17T07:44:51Z</time>
      </trkpt>
      <trkpt lat="44.43823" lon="5.02036">
        <ele>303.43</ele>
        <time>2017-04-17T07:45:12Z</time>
      </trkpt>
      <trkpt lat="44.43842" lon="5.02052">
        <ele>304.88</ele>
        <time>2017-04-17T07:45:33Z</time>
      </trkpt>
      <trkpt lat="44.43861" lon="5.02069">
        <ele>304.88</ele>
        <time>2017-04-17T07:45:55Z</time>
      </trkpt>
      <trkpt lat="44.43881" lon="5.02085">
        <ele>306.32</ele>
        <time>2017-04-17T07:46:16Z</time>
      </trkpt>
      <trkpt lat="44.43883" lon="5.02086">
        <ele>304.88</ele>
        <time>2017-04-17T07:46:18Z</time>
      </trkpt>
      <trkpt lat="44.43893" lon="5.021">
        <ele>305.36</ele>
        <time>2017-04-17T07:46:35Z</time>
      </trkpt>
      <trkpt lat="44.43893" lon="5.021">
        <ele>307.28</ele>
        <time>2017-04-17T07:46:39Z</time>
      </trkpt>
      <trkpt lat="44.43896" lon="5.02101">
        <ele>306.8</ele>
        <time>2017-04-17T07:46:52Z</time>
      </trkpt>
      <trkpt lat="44.43907" lon="5.02096">
        <ele>305.84</ele>
        <time>2017-04-17T07:47:04Z</time>
      </trkpt>
      <trkpt lat="44.43917" lon="5.02103">
        <ele>307.28</ele>
        <time>2017-04-17T07:47:14Z</time>
      </trkpt>
      <trkpt lat="44.4393" lon="5.02114">
        <ele>307.28</ele>
        <time>2017-04-17T07:47:30Z</time>
      </trkpt>
      <trkpt lat="44.43936" lon="5.0212">
        <ele>307.28</ele>
        <time>2017-04-17T07:47:43Z</time>
      </trkpt>
      <trkpt lat="44.43946" lon="5.02127">
        <ele>306.8</ele>
        <time>2017-04-17T07:47:54Z</time>
      </trkpt>
      <trkpt lat="44.43948" lon="5.02129">
        <ele>307.76</ele>
        <time>2017-04-17T07:47:57Z</time>
      </trkpt>
      <trkpt lat="44.43965" lon="5.02141">
        <ele>307.76</ele>
        <time>2017-04-17T07:48:14Z</time>
      </trkpt>
      <trkpt lat="44.43981" lon="5.02152">
        <ele>308.24</ele>
        <time>2017-04-17T07:48:33Z</time>
      </trkpt>
      <trkpt lat="44.43996" lon="5.02164">
        <ele>308.72</ele>
        <time>2017-04-17T07:48:51Z</time>
      </trkpt>
      <trkpt lat="44.44002" lon="5.02168">
        <ele>307.76</ele>
        <time>2017-04-17T07:48:58Z</time>
      </trkpt>
      <trkpt lat="44.44021" lon="5.02181">
        <ele>308.72</ele>
        <time>2017-04-17T07:49:18Z</time>
      </trkpt>
      <trkpt lat="44.44041" lon="5.02195">
        <ele>308.24</ele>
        <time>2017-04-17T07:49:40Z</time>
      </trkpt>
      <trkpt lat="44.44042" lon="5.02196">
        <ele>308.24</ele>
        <time>2017-04-17T07:49:41Z</time>
      </trkpt>
      <trkpt lat="44.44059" lon="5.02207">
        <ele>311.12</ele>
        <time>2017-04-17T07:50:00Z</time>
      </trkpt>
      <trkpt lat="44.44074" lon="5.0222">
        <ele>311.12</ele>
        <time>2017-04-17T07:50:21Z</time>
      </trkpt>
      <trkpt lat="44.44075" lon="5.0222">
        <ele>311.12</ele>
        <time>2017-04-17T07:50:22Z</time>
      </trkpt>
      <trkpt lat="44.44078" lon="5.02221">
        <ele>314.49</ele>
        <time>2017-04-17T07:50:25Z</time>
      </trkpt>
      <trkpt lat="44.44079" lon="5.02222">
        <ele>311.12</ele>
        <time>2017-04-17T07:50:27Z</time>
      </trkpt>
      <trkpt lat="44.44079" lon="5.02223">
        <ele>314.49</ele>
        <time>2017-04-17T07:50:28Z</time>
      </trkpt>
      <trkpt lat="44.44092" lon="5.02234">
        <ele>312.57</ele>
        <time>2017-04-17T07:50:45Z</time>
      </trkpt>
      <trkpt lat="44.441" lon="5.0224">
        <ele>313.53</ele>
        <time>2017-04-17T07:50:56Z</time>
      </trkpt>
      <trkpt lat="44.44099" lon="5.02256">
        <ele>314.49</ele>
        <time>2017-04-17T07:51:13Z</time>
      </trkpt>
      <trkpt lat="44.44095" lon="5.02261">
        <ele>314.49</ele>
        <time>2017-04-17T07:51:19Z</time>
      </trkpt>
      <trkpt lat="44.44089" lon="5.02269">
        <ele>314.01</ele>
        <time>2017-04-17T07:51:34Z</time>
      </trkpt>
      <trkpt lat="44.44072" lon="5.02264">
        <ele>314.01</ele>
        <time>2017-04-17T07:51:49Z</time>
      </trkpt>
      <trkpt lat="44.4406" lon="5.02255">
        <ele>313.53</ele>
        <time>2017-04-17T07:52:05Z</time>
      </trkpt>
      <trkpt lat="44.44049" lon="5.02252">
        <ele>313.05</ele>
        <time>2017-04-17T07:52:23Z</time>
      </trkpt>
      <trkpt lat="44.44051" lon="5.02261">
        <ele>313.05</ele>
        <time>2017-04-17T07:52:37Z</time>
      </trkpt>
      <trkpt lat="44.4405" lon="5.02264">
        <ele>312.57</ele>
        <time>2017-04-17T07:52:48Z</time>
      </trkpt>
      <trkpt lat="44.44058" lon="5.02264">
        <ele>312.57</ele>
        <time>2017-04-17T07:53:00Z</time>
      </trkpt>
      <trkpt lat="44.44063" lon="5.02266">
        <ele>314.01</ele>
        <time>2017-04-17T07:53:05Z</time>
      </trkpt>
      <trkpt lat="44.44073" lon="5.02271">
        <ele>315.45</ele>
        <time>2017-04-17T07:53:19Z</time>
      </trkpt>
      <trkpt lat="44.44083" lon="5.0228">
        <ele>316.41</ele>
        <time>2017-04-17T07:53:35Z</time>
      </trkpt>
      <trkpt lat="44.44088" lon="5.02283">
        <ele>316.89</ele>
        <time>2017-04-17T07:53:54Z</time>
      </trkpt>
      <trkpt lat="44.44093" lon="5.02287">
        <ele>320.74</ele>
        <time>2017-04-17T07:54:06Z</time>
      </trkpt>
      <trkpt lat="44.44099" lon="5.02291">
        <ele>318.33</ele>
        <time>2017-04-17T07:54:26Z</time>
      </trkpt>
      <trkpt lat="44.4411" lon="5.02298">
        <ele>320.74</ele>
        <time>2017-04-17T07:54:42Z</time>
      </trkpt>
      <trkpt lat="44.44121" lon="5.02298">
        <ele>322.66</ele>
        <time>2017-04-17T07:54:59Z</time>
      </trkpt>
      <trkpt lat="44.44124" lon="5.02295">
        <ele>323.14</ele>
        <time>2017-04-17T07:55:17Z</time>
      </trkpt>
      <trkpt lat="44.44128" lon="5.02292">
        <ele>323.14</ele>
        <time>2017-04-17T07:55:32Z</time>
      </trkpt>
      <trkpt lat="44.44142" lon="5.02286">
        <ele>324.1</ele>
        <time>2017-04-17T07:55:46Z</time>
      </trkpt>
      <trkpt lat="44.44157" lon="5.02285">
        <ele>326.02</ele>
        <time>2017-04-17T07:56:01Z</time>
      </trkpt>
      <trkpt lat="44.44155" lon="5.02295">
        <ele>326.5</ele>
        <time>2017-04-17T07:56:14Z</time>
      </trkpt>
      <trkpt lat="44.44145" lon="5.02309">
        <ele>327.95</ele>
        <time>2017-04-17T07:56:31Z</time>
      </trkpt>
      <trkpt lat="44.44139" lon="5.02324">
        <ele>329.87</ele>
        <time>2017-04-17T07:56:47Z</time>
      </trkpt>
      <trkpt lat="44.44133" lon="5.02336">
        <ele>331.79</ele>
        <time>2017-04-17T07:57:00Z</time>
      </trkpt>
      <trkpt lat="44.44129" lon="5.02351">
        <ele>334.2</ele>
        <time>2017-04-17T07:57:14Z</time>
      </trkpt>
      <trkpt lat="44.44131" lon="5.02368">
        <ele>335.64</ele>
        <time>2017-04-17T07:57:30Z</time>
      </trkpt>
      <trkpt lat="44.44132" lon="5.02369">
        <ele>336.12</ele>
        <time>2017-04-17T07:57:55Z</time>
      </trkpt>
      <trkpt lat="44.44128" lon="5.02372">
        <ele>335.16</ele>
        <time>2017-04-17T07:58:12Z</time>
      </trkpt>
      <trkpt lat="44.44123" lon="5.0238">
        <ele>335.16</ele>
        <time>2017-04-17T07:58:25Z</time>
      </trkpt>
      <trkpt lat="44.44108" lon="5.0239">
        <ele>333.71</ele>
        <time>2017-04-17T07:58:42Z</time>
      </trkpt>
      <trkpt lat="44.44095" lon="5.02401">
        <ele>331.79</ele>
        <time>2017-04-17T07:59:01Z</time>
      </trkpt>
      <trkpt lat="44.44085" lon="5.02409">
        <ele>330.83</ele>
        <time>2017-04-17T07:59:17Z</time>
      </trkpt>
      <trkpt lat="44.4408" lon="5.02414">
        <ele>330.35</ele>
        <time>2017-04-17T07:59:23Z</time>
      </trkpt>
      <trkpt lat="44.44074" lon="5.02421">
        <ele>328.91</ele>
        <time>2017-04-17T07:59:32Z</time>
      </trkpt>
      <trkpt lat="44.4406" lon="5.02432">
        <ele>328.43</ele>
        <time>2017-04-17T07:59:49Z</time>
      </trkpt>
      <trkpt lat="44.44051" lon="5.02443">
        <ele>327.95</ele>
        <time>2017-04-17T08:00:03Z</time>
      </trkpt>
      <trkpt lat="44.4404" lon="5.02461">
        <ele>327.95</ele>
        <time>2017-04-17T08:00:20Z</time>
      </trkpt>
      <trkpt lat="44.44032" lon="5.02479">
        <ele>327.95</ele>
        <time>2017-04-17T08:00:36Z</time>
      </trkpt>
      <trkpt lat="44.44031" lon="5.02491">
        <ele>327.95</ele>
        <time>2017-04-17T08:00:53Z</time>
      </trkpt>
      <trkpt lat="44.44029" lon="5.02494">
        <ele>327.95</ele>
        <time>2017-04-17T08:01:08Z</time>
      </trkpt>
      <trkpt lat="44.4403" lon="5.02496">
        <ele>329.39</ele>
        <time>2017-04-17T08:01:20Z</time>
      </trkpt>
      <trkpt lat="44.44031" lon="5.02494">
        <ele>328.91</ele>
        <time>2017-04-17T08:01:36Z</time>
      </trkpt>
      <trkpt lat="44.44029" lon="5.02495">
        <ele>328.91</ele>
        <time>2017-04-17T08:01:50Z</time>
      </trkpt>
      <trkpt lat="44.44026" lon="5.02503">
        <ele>329.39</ele>
        <time>2017-04-17T08:02:06Z</time>
      </trkpt>
      <trkpt lat="44.44015" lon="5.02514">
        <ele>329.39</ele>
        <time>2017-04-17T08:02:22Z</time>
      </trkpt>
      <trkpt lat="44.44014" lon="5.02515">
        <ele>329.39</ele>
        <time>2017-04-17T08:02:43Z</time>
      </trkpt>
      <trkpt lat="44.44018" lon="5.02514">
        <ele>329.39</ele>
        <time>2017-04-17T08:03:06Z</time>
      </trkpt>
      <trkpt lat="44.44028" lon="5.02502">
        <ele>329.87</ele>
        <time>2017-04-17T08:03:22Z</time>
      </trkpt>
      <trkpt lat="44.44035" lon="5.02518">
        <ele>330.35</ele>
        <time>2017-04-17T08:03:37Z</time>
      </trkpt>
      <trkpt lat="44.44033" lon="5.02535">
        <ele>331.31</ele>
        <time>2017-04-17T08:03:51Z</time>
      </trkpt>
      <trkpt lat="44.44032" lon="5.02553">
        <ele>332.27</ele>
        <time>2017-04-17T08:04:07Z</time>
      </trkpt>
      <trkpt lat="44.44029" lon="5.02567">
        <ele>334.68</ele>
        <time>2017-04-17T08:04:22Z</time>
      </trkpt>
      <trkpt lat="44.44029" lon="5.02569">
        <ele>334.68</ele>
        <time>2017-04-17T08:04:24Z</time>
      </trkpt>
      <trkpt lat="44.44028" lon="5.02589">
        <ele>336.6</ele>
        <time>2017-04-17T08:04:39Z</time>
      </trkpt>
      <trkpt lat="44.44021" lon="5.02602">
        <ele>338.52</ele>
        <time>2017-04-17T08:04:53Z</time>
      </trkpt>
      <trkpt lat="44.44011" lon="5.02616">
        <ele>340.92</ele>
        <time>2017-04-17T08:05:09Z</time>
      </trkpt>
      <trkpt lat="44.44007" lon="5.0263">
        <ele>342.37</ele>
        <time>2017-04-17T08:05:23Z</time>
      </trkpt>
      <trkpt lat="44.44004" lon="5.02642">
        <ele>343.33</ele>
        <time>2017-04-17T08:05:38Z</time>
      </trkpt>
      <trkpt lat="44.43999" lon="5.02661">
        <ele>343.33</ele>
        <time>2017-04-17T08:05:54Z</time>
      </trkpt>
      <trkpt lat="44.43994" lon="5.02683">
        <ele>345.25</ele>
        <time>2017-04-17T08:06:09Z</time>
      </trkpt>
      <trkpt lat="44.43991" lon="5.02699">
        <ele>345.73</ele>
        <time>2017-04-17T08:06:22Z</time>
      </trkpt>
      <trkpt lat="44.43989" lon="5.02722">
        <ele>346.69</ele>
        <time>2017-04-17T08:06:38Z</time>
      </trkpt>
      <trkpt lat="44.43989" lon="5.02724">
        <ele>346.69</ele>
        <time>2017-04-17T08:06:39Z</time>
      </trkpt>
      <trkpt lat="44.43992" lon="5.0275">
        <ele>347.17</ele>
        <time>2017-04-17T08:06:58Z</time>
      </trkpt>
      <trkpt lat="44.43994" lon="5.02755">
        <ele>345.73</ele>
        <time>2017-04-17T08:07:02Z</time>
      </trkpt>
      <trkpt lat="44.44" lon="5.02761">
        <ele>345.73</ele>
        <time>2017-04-17T08:07:08Z</time>
      </trkpt>
      <trkpt lat="44.44018" lon="5.02766">
        <ele>345.73</ele>
        <time>2017-04-17T08:07:25Z</time>
      </trkpt>
      <trkpt lat="44.44031" lon="5.02768">
        <ele>346.21</ele>
        <time>2017-04-17T08:07:40Z</time>
      </trkpt>
      <trkpt lat="44.44033" lon="5.02769">
        <ele>346.21</ele>
        <time>2017-04-17T08:07:42Z</time>
      </trkpt>
      <trkpt lat="44.44036" lon="5.0277">
        <ele>347.65</ele>
        <time>2017-04-17T08:07:46Z</time>
      </trkpt>
      <trkpt lat="44.44048" lon="5.02775">
        <ele>347.65</ele>
        <time>2017-04-17T08:08:00Z</time>
      </trkpt>
      <trkpt lat="44.44061" lon="5.0278">
        <ele>349.58</ele>
        <time>2017-04-17T08:08:14Z</time>
      </trkpt>
      <trkpt lat="44.44075" lon="5.02789">
        <ele>351.02</ele>
        <time>2017-04-17T08:08:29Z</time>
      </trkpt>
      <trkpt lat="44.44091" lon="5.028">
        <ele>351.98</ele>
        <time>2017-04-17T08:08:49Z</time>
      </trkpt>
      <trkpt lat="44.44103" lon="5.02809">
        <ele>353.9</ele>
        <time>2017-04-17T08:09:03Z</time>
      </trkpt>
      <trkpt lat="44.44116" lon="5.02823">
        <ele>356.31</ele>
        <time>2017-04-17T08:09:21Z</time>
      </trkpt>
      <trkpt lat="44.44126" lon="5.02831">
        <ele>358.23</ele>
        <time>2017-04-17T08:09:35Z</time>
      </trkpt>
      <trkpt lat="44.44137" lon="5.02837">
        <ele>359.67</ele>
        <time>2017-04-17T08:09:50Z</time>
      </trkpt>
      <trkpt lat="44.44141" lon="5.02846">
        <ele>361.11</ele>
        <time>2017-04-17T08:10:03Z</time>
      </trkpt>
      <trkpt lat="44.44139" lon="5.02848">
        <ele>361.59</ele>
        <time>2017-04-17T08:10:26Z</time>
      </trkpt>
      <trkpt lat="44.44139" lon="5.02851">
        <ele>360.15</ele>
        <time>2017-04-17T08:10:33Z</time>
      </trkpt>
      <trkpt lat="44.44136" lon="5.02855">
        <ele>361.11</ele>
        <time>2017-04-17T08:10:45Z</time>
      </trkpt>
      <trkpt lat="44.4413" lon="5.02865">
        <ele>360.15</ele>
        <time>2017-04-17T08:10:56Z</time>
      </trkpt>
      <trkpt lat="44.44119" lon="5.02882">
        <ele>359.67</ele>
        <time>2017-04-17T08:11:15Z</time>
      </trkpt>
      <trkpt lat="44.44109" lon="5.02894">
        <ele>358.71</ele>
        <time>2017-04-17T08:11:31Z</time>
      </trkpt>
      <trkpt lat="44.44099" lon="5.02906">
        <ele>357.75</ele>
        <time>2017-04-17T08:11:49Z</time>
      </trkpt>
      <trkpt lat="44.44098" lon="5.02907">
        <ele>357.75</ele>
        <time>2017-04-17T08:11:57Z</time>
      </trkpt>
      <trkpt lat="44.44095" lon="5.0291">
        <ele>357.75</ele>
        <time>2017-04-17T08:12:07Z</time>
      </trkpt>
      <trkpt lat="44.44093" lon="5.02911">
        <ele>356.79</ele>
        <time>2017-04-17T08:12:18Z</time>
      </trkpt>
      <trkpt lat="44.44094" lon="5.02911">
        <ele>360.15</ele>
        <time>2017-04-17T08:12:24Z</time>
      </trkpt>
      <trkpt lat="44.44094" lon="5.02911">
        <ele>356.79</ele>
        <time>2017-04-17T08:12:25Z</time>
      </trkpt>
      <trkpt lat="44.44089" lon="5.02916">
        <ele>356.31</ele>
        <time>2017-04-17T08:12:35Z</time>
      </trkpt>
      <trkpt lat="44.44078" lon="5.02923">
        <ele>354.38</ele>
        <time>2017-04-17T08:12:51Z</time>
      </trkpt>
      <trkpt lat="44.44065" lon="5.02935">
        <ele>353.9</ele>
        <time>2017-04-17T08:13:10Z</time>
      </trkpt>
      <trkpt lat="44.44052" lon="5.02949">
        <ele>351.98</ele>
        <time>2017-04-17T08:13:29Z</time>
      </trkpt>
      <trkpt lat="44.44038" lon="5.02964">
        <ele>351.02</ele>
        <time>2017-04-17T08:13:49Z</time>
      </trkpt>
      <trkpt lat="44.4403" lon="5.02976">
        <ele>349.1</ele>
        <time>2017-04-17T08:14:04Z</time>
      </trkpt>
      <trkpt lat="44.4402" lon="5.02989">
        <ele>348.62</ele>
        <time>2017-04-17T08:14:19Z</time>
      </trkpt>
      <trkpt lat="44.44016" lon="5.02993">
        <ele>348.62</ele>
        <time>2017-04-17T08:14:24Z</time>
      </trkpt>
      <trkpt lat="44.44004" lon="5.03005">
        <ele>347.17</ele>
        <time>2017-04-17T08:14:40Z</time>
      </trkpt>
      <trkpt lat="44.43993" lon="5.03016">
        <ele>347.17</ele>
        <time>2017-04-17T08:14:56Z</time>
      </trkpt>
      <trkpt lat="44.43979" lon="5.03034">
        <ele>346.69</ele>
        <time>2017-04-17T08:15:15Z</time>
      </trkpt>
      <trkpt lat="44.43969" lon="5.03048">
        <ele>346.69</ele>
        <time>2017-04-17T08:15:29Z</time>
      </trkpt>
      <trkpt lat="44.43958" lon="5.03069">
        <ele>346.21</ele>
        <time>2017-04-17T08:15:47Z</time>
      </trkpt>
      <trkpt lat="44.43948" lon="5.03086">
        <ele>346.21</ele>
        <time>2017-04-17T08:16:03Z</time>
      </trkpt>
      <trkpt lat="44.43938" lon="5.03096">
        <ele>346.21</ele>
        <time>2017-04-17T08:16:20Z</time>
      </trkpt>
      <trkpt lat="44.43924" lon="5.03112">
        <ele>345.73</ele>
        <time>2017-04-17T08:16:38Z</time>
      </trkpt>
      <trkpt lat="44.43913" lon="5.03128">
        <ele>345.73</ele>
        <time>2017-04-17T08:16:56Z</time>
      </trkpt>
      <trkpt lat="44.43897" lon="5.03143">
        <ele>344.29</ele>
        <time>2017-04-17T08:17:14Z</time>
      </trkpt>
      <trkpt lat="44.43883" lon="5.03162">
        <ele>343.81</ele>
        <time>2017-04-17T08:17:30Z</time>
      </trkpt>
      <trkpt lat="44.43876" lon="5.03174">
        <ele>345.25</ele>
        <time>2017-04-17T08:17:45Z</time>
      </trkpt>
      <trkpt lat="44.43867" lon="5.03191">
        <ele>345.25</ele>
        <time>2017-04-17T08:18:00Z</time>
      </trkpt>
      <trkpt lat="44.43858" lon="5.03211">
        <ele>345.73</ele>
        <time>2017-04-17T08:18:18Z</time>
      </trkpt>
      <trkpt lat="44.43853" lon="5.03226">
        <ele>346.21</ele>
        <time>2017-04-17T08:18:34Z</time>
      </trkpt>
      <trkpt lat="44.43849" lon="5.03238">
        <ele>347.17</ele>
        <time>2017-04-17T08:18:51Z</time>
      </trkpt>
      <trkpt lat="44.43844" lon="5.03254">
        <ele>348.13</ele>
        <time>2017-04-17T08:19:08Z</time>
      </trkpt>
      <trkpt lat="44.43841" lon="5.03268">
        <ele>349.1</ele>
        <time>2017-04-17T08:19:26Z</time>
      </trkpt>
      <trkpt lat="44.43836" lon="5.03283">
        <ele>351.02</ele>
        <time>2017-04-17T08:19:44Z</time>
      </trkpt>
      <trkpt lat="44.43829" lon="5.03296">
        <ele>351.02</ele>
        <time>2017-04-17T08:20:00Z</time>
      </trkpt>
      <trkpt lat="44.43819" lon="5.03316">
        <ele>351.98</ele>
        <time>2017-04-17T08:20:20Z</time>
      </trkpt>
      <trkpt lat="44.43812" lon="5.03333">
        <ele>353.42</ele>
        <time>2017-04-17T08:20:38Z</time>
      </trkpt>
      <trkpt lat="44.43805" lon="5.03348">
        <ele>353.42</ele>
        <time>2017-04-17T08:20:56Z</time>
      </trkpt>
      <trkpt lat="44.43797" lon="5.03365">
        <ele>353.9</ele>
        <time>2017-04-17T08:21:12Z</time>
      </trkpt>
      <trkpt lat="44.43787" lon="5.03386">
        <ele>354.38</ele>
        <time>2017-04-17T08:21:31Z</time>
      </trkpt>
      <trkpt lat="44.43777" lon="5.03407">
        <ele>354.86</ele>
        <time>2017-04-17T08:21:50Z</time>
      </trkpt>
      <trkpt lat="44.43769" lon="5.03426">
        <ele>355.34</ele>
        <time>2017-04-17T08:22:08Z</time>
      </trkpt>
      <trkpt lat="44.43764" lon="5.03437">
        <ele>355.34</ele>
        <time>2017-04-17T08:22:21Z</time>
      </trkpt>
      <trkpt lat="44.43753" lon="5.03459">
        <ele>355.34</ele>
        <time>2017-04-17T08:22:38Z</time>
      </trkpt>
      <trkpt lat="44.43743" lon="5.03478">
        <ele>355.34</ele>
        <time>2017-04-17T08:22:55Z</time>
      </trkpt>
      <trkpt lat="44.43738" lon="5.03491">
        <ele>355.83</ele>
        <time>2017-04-17T08:23:08Z</time>
      </trkpt>
      <trkpt lat="44.43733" lon="5.03508">
        <ele>356.31</ele>
        <time>2017-04-17T08:23:23Z</time>
      </trkpt>
      <trkpt lat="44.43727" lon="5.03523">
        <ele>357.27</ele>
        <time>2017-04-17T08:23:38Z</time>
      </trkpt>
      <trkpt lat="44.43718" lon="5.0354">
        <ele>357.75</ele>
        <time>2017-04-17T08:23:56Z</time>
      </trkpt>
      <trkpt lat="44.43709" lon="5.0356">
        <ele>358.71</ele>
        <time>2017-04-17T08:24:15Z</time>
      </trkpt>
      <trkpt lat="44.437" lon="5.03582">
        <ele>358.71</ele>
        <time>2017-04-17T08:24:35Z</time>
      </trkpt>
      <trkpt lat="44.43689" lon="5.03604">
        <ele>359.19</ele>
        <time>2017-04-17T08:24:54Z</time>
      </trkpt>
      <trkpt lat="44.43682" lon="5.03622">
        <ele>359.67</ele>
        <time>2017-04-17T08:25:12Z</time>
      </trkpt>
      <trkpt lat="44.43677" lon="5.03636">
        <ele>360.63</ele>
        <time>2017-04-17T08:25:28Z</time>
      </trkpt>
      <trkpt lat="44.43674" lon="5.03649">
        <ele>361.11</ele>
        <time>2017-04-17T08:25:43Z</time>
      </trkpt>
      <trkpt lat="44.43668" lon="5.03669">
        <ele>361.59</ele>
        <time>2017-04-17T08:25:58Z</time>
      </trkpt>
      <trkpt lat="44.43658" lon="5.03688">
        <ele>362.55</ele>
        <time>2017-04-17T08:26:18Z</time>
      </trkpt>
      <trkpt lat="44.43649" lon="5.03702">
        <ele>362.55</ele>
        <time>2017-04-17T08:26:36Z</time>
      </trkpt>
      <trkpt lat="44.43638" lon="5.03714">
        <ele>360.63</ele>
        <time>2017-04-17T08:26:52Z</time>
      </trkpt>
      <trkpt lat="44.43628" lon="5.03701">
        <ele>360.15</ele>
        <time>2017-04-17T08:27:09Z</time>
      </trkpt>
      <trkpt lat="44.4363" lon="5.03681">
        <ele>359.67</ele>
        <time>2017-04-17T08:27:28Z</time>
      </trkpt>
      <trkpt lat="44.43635" lon="5.03684">
        <ele>361.11</ele>
        <time>2017-04-17T08:27:38Z</time>
      </trkpt>
      <trkpt lat="44.43642" lon="5.03689">
        <ele>362.07</ele>
        <time>2017-04-17T08:27:56Z</time>
      </trkpt>
      <trkpt lat="44.4364" lon="5.03689">
        <ele>360.15</ele>
        <time>2017-04-17T08:28:21Z</time>
      </trkpt>
      <trkpt lat="44.4364" lon="5.03689">
        <ele>361.11</ele>
        <time>2017-04-17T08:28:27Z</time>
      </trkpt>
      <trkpt lat="44.43639" lon="5.03689">
        <ele>361.59</ele>
        <time>2017-04-17T08:28:56Z</time>
      </trkpt>
      <trkpt lat="44.43639" lon="5.03689">
        <ele>361.59</ele>
        <time>2017-04-17T08:29:40Z</time>
      </trkpt>
      <trkpt lat="44.43639" lon="5.03688">
        <ele>361.59</ele>
        <time>2017-04-17T08:30:35Z</time>
      </trkpt>
      <trkpt lat="44.43639" lon="5.03689">
        <ele>361.59</ele>
        <time>2017-04-17T08:31:21Z</time>
      </trkpt>
      <trkpt lat="44.43639" lon="5.0369">
        <ele>360.63</ele>
        <time>2017-04-17T08:31:32Z</time>
      </trkpt>
      <trkpt lat="44.4364" lon="5.0369">
        <ele>360.63</ele>
        <time>2017-04-17T08:32:15Z</time>
      </trkpt>
      <trkpt lat="44.43641" lon="5.03689">
        <ele>360.63</ele>
        <time>2017-04-17T08:33:02Z</time>
      </trkpt>
      <trkpt lat="44.43639" lon="5.0369">
        <ele>361.11</ele>
        <time>2017-04-17T08:33:49Z</time>
      </trkpt>
      <trkpt lat="44.4364" lon="5.03692">
        <ele>361.59</ele>
        <time>2017-04-17T08:34:27Z</time>
      </trkpt>
      <trkpt lat="44.43639" lon="5.0369">
        <ele>361.59</ele>
        <time>2017-04-17T08:35:19Z</time>
      </trkpt>
      <trkpt lat="44.4364" lon="5.03689">
        <ele>361.59</ele>
        <time>2017-04-17T08:35:57Z</time>
      </trkpt>
      <trkpt lat="44.43639" lon="5.0369">
        <ele>362.07</ele>
        <time>2017-04-17T08:36:38Z</time>
      </trkpt>
      <trkpt lat="44.43639" lon="5.03689">
        <ele>362.07</ele>
        <time>2017-04-17T08:37:18Z</time>
      </trkpt>
      <trkpt lat="44.43638" lon="5.0369">
        <ele>362.07</ele>
        <time>2017-04-17T08:37:53Z</time>
      </trkpt>
      <trkpt lat="44.43639" lon="5.0369">
        <ele>362.07</ele>
        <time>2017-04-17T08:38:34Z</time>
      </trkpt>
      <trkpt lat="44.4364" lon="5.0369">
        <ele>362.07</ele>
        <time>2017-04-17T08:39:10Z</time>
      </trkpt>
      <trkpt lat="44.4364" lon="5.03691">
        <ele>362.07</ele>
        <time>2017-04-17T08:39:57Z</time>
      </trkpt>
      <trkpt lat="44.43639" lon="5.03691">
        <ele>362.07</ele>
        <time>2017-04-17T08:40:33Z</time>
      </trkpt>
      <trkpt lat="44.43638" lon="5.0369">
        <ele>362.07</ele>
        <time>2017-04-17T08:41:15Z</time>
      </trkpt>
      <trkpt lat="44.43639" lon="5.0369">
        <ele>362.55</ele>
        <time>2017-04-17T08:41:51Z</time>
      </trkpt>
      <trkpt lat="44.43641" lon="5.03691">
        <ele>362.55</ele>
        <time>2017-04-17T08:42:33Z</time>
      </trkpt>
      <trkpt lat="44.4364" lon="5.0369">
        <ele>363.04</ele>
        <time>2017-04-17T08:43:11Z</time>
      </trkpt>
      <trkpt lat="44.43641" lon="5.03691">
        <ele>362.55</ele>
        <time>2017-04-17T08:43:45Z</time>
      </trkpt>
      <trkpt lat="44.43639" lon="5.0369">
        <ele>362.07</ele>
        <time>2017-04-17T08:44:23Z</time>
      </trkpt>
      <trkpt lat="44.43639" lon="5.0369">
        <ele>363.52</ele>
        <time>2017-04-17T08:44:59Z</time>
      </trkpt>
      <trkpt lat="44.4364" lon="5.0369">
        <ele>364</ele>
        <time>2017-04-17T08:45:36Z</time>
      </trkpt>
      <trkpt lat="44.4364" lon="5.0369">
        <ele>360.15</ele>
        <time>2017-04-17T08:45:37Z</time>
      </trkpt>
      <trkpt lat="44.4364" lon="5.03689">
        <ele>366.88</ele>
        <time>2017-04-17T08:45:38Z</time>
      </trkpt>
      <trkpt lat="44.4364" lon="5.03689">
        <ele>363.52</ele>
        <time>2017-04-17T08:45:39Z</time>
      </trkpt>
      <trkpt lat="44.43636" lon="5.03683">
        <ele>363.52</ele>
        <time>2017-04-17T08:45:54Z</time>
      </trkpt>
      <trkpt lat="44.43634" lon="5.03679">
        <ele>363.52</ele>
        <time>2017-04-17T08:46:10Z</time>
      </trkpt>
      <trkpt lat="44.43626" lon="5.03688">
        <ele>362.55</ele>
        <time>2017-04-17T08:46:26Z</time>
      </trkpt>
      <trkpt lat="44.4363" lon="5.03711">
        <ele>363.04</ele>
        <time>2017-04-17T08:46:42Z</time>
      </trkpt>
      <trkpt lat="44.43635" lon="5.03724">
        <ele>363.04</ele>
        <time>2017-04-17T08:47:01Z</time>
      </trkpt>
      <trkpt lat="44.43635" lon="5.03725">
        <ele>363.04</ele>
        <time>2017-04-17T08:47:33Z</time>
      </trkpt>
      <trkpt lat="44.43636" lon="5.03724">
        <ele>364.48</ele>
        <time>2017-04-17T08:48:05Z</time>
      </trkpt>
      <trkpt lat="44.43637" lon="5.03724">
        <ele>364.48</ele>
        <time>2017-04-17T08:48:33Z</time>
      </trkpt>
      <trkpt lat="44.43638" lon="5.0372">
        <ele>364.48</ele>
        <time>2017-04-17T08:49:02Z</time>
      </trkpt>
      <trkpt lat="44.4364" lon="5.03724">
        <ele>364.96</ele>
        <time>2017-04-17T08:49:28Z</time>
      </trkpt>
      <trkpt lat="44.4365" lon="5.03732">
        <ele>364.96</ele>
        <time>2017-04-17T08:49:41Z</time>
      </trkpt>
      <trkpt lat="44.43663" lon="5.0374">
        <ele>365.44</ele>
        <time>2017-04-17T08:49:58Z</time>
      </trkpt>
      <trkpt lat="44.43672" lon="5.03742">
        <ele>366.88</ele>
        <time>2017-04-17T08:50:09Z</time>
      </trkpt>
      <trkpt lat="44.43674" lon="5.03744">
        <ele>365.44</ele>
        <time>2017-04-17T08:50:11Z</time>
      </trkpt>
      <trkpt lat="44.43674" lon="5.03746">
        <ele>368.8</ele>
        <time>2017-04-17T08:50:12Z</time>
      </trkpt>
      <trkpt lat="44.43682" lon="5.03747">
        <ele>367.36</ele>
        <time>2017-04-17T08:50:23Z</time>
      </trkpt>
      <trkpt lat="44.43692" lon="5.0375">
        <ele>366.4</ele>
        <time>2017-04-17T08:50:36Z</time>
      </trkpt>
      <trkpt lat="44.43704" lon="5.03755">
        <ele>366.4</ele>
        <time>2017-04-17T08:50:50Z</time>
      </trkpt>
      <trkpt lat="44.43706" lon="5.03756">
        <ele>366.4</ele>
        <time>2017-04-17T08:50:52Z</time>
      </trkpt>
      <trkpt lat="44.43717" lon="5.03772">
        <ele>366.4</ele>
        <time>2017-04-17T08:51:09Z</time>
      </trkpt>
      <trkpt lat="44.43719" lon="5.03776">
        <ele>366.4</ele>
        <time>2017-04-17T08:51:12Z</time>
      </trkpt>
      <trkpt lat="44.4372" lon="5.03783">
        <ele>366.88</ele>
        <time>2017-04-17T08:51:24Z</time>
      </trkpt>
      <trkpt lat="44.4372" lon="5.03809">
        <ele>366.4</ele>
        <time>2017-04-17T08:51:42Z</time>
      </trkpt>
      <trkpt lat="44.43721" lon="5.03842">
        <ele>366.4</ele>
        <time>2017-04-17T08:51:59Z</time>
      </trkpt>
      <trkpt lat="44.43727" lon="5.0386">
        <ele>367.84</ele>
        <time>2017-04-17T08:52:15Z</time>
      </trkpt>
      <trkpt lat="44.43741" lon="5.03875">
        <ele>368.8</ele>
        <time>2017-04-17T08:52:33Z</time>
      </trkpt>
      <trkpt lat="44.43758" lon="5.03886">
        <ele>368.8</ele>
        <time>2017-04-17T08:52:53Z</time>
      </trkpt>
      <trkpt lat="44.43779" lon="5.03897">
        <ele>368.8</ele>
        <time>2017-04-17T08:53:13Z</time>
      </trkpt>
      <trkpt lat="44.4378" lon="5.03898">
        <ele>368.8</ele>
        <time>2017-04-17T08:53:14Z</time>
      </trkpt>
      <trkpt lat="44.43797" lon="5.03911">
        <ele>369.28</ele>
        <time>2017-04-17T08:53:32Z</time>
      </trkpt>
      <trkpt lat="44.43811" lon="5.03921">
        <ele>369.76</ele>
        <time>2017-04-17T08:53:48Z</time>
      </trkpt>
      <trkpt lat="44.43825" lon="5.03931">
        <ele>370.24</ele>
        <time>2017-04-17T08:54:04Z</time>
      </trkpt>
      <trkpt lat="44.43843" lon="5.03941">
        <ele>371.21</ele>
        <time>2017-04-17T08:54:22Z</time>
      </trkpt>
      <trkpt lat="44.43856" lon="5.03952">
        <ele>371.21</ele>
        <time>2017-04-17T08:54:39Z</time>
      </trkpt>
      <trkpt lat="44.43857" lon="5.03956">
        <ele>371.69</ele>
        <time>2017-04-17T08:55:01Z</time>
      </trkpt>
      <trkpt lat="44.43869" lon="5.03963">
        <ele>372.17</ele>
        <time>2017-04-17T08:55:15Z</time>
      </trkpt>
      <trkpt lat="44.43886" lon="5.03983">
        <ele>373.13</ele>
        <time>2017-04-17T08:55:36Z</time>
      </trkpt>
      <trkpt lat="44.43891" lon="5.03994">
        <ele>374.57</ele>
        <time>2017-04-17T08:55:47Z</time>
      </trkpt>
      <trkpt lat="44.439" lon="5.04012">
        <ele>375.53</ele>
        <time>2017-04-17T08:56:05Z</time>
      </trkpt>
      <trkpt lat="44.43911" lon="5.0403">
        <ele>376.97</ele>
        <time>2017-04-17T08:56:22Z</time>
      </trkpt>
      <trkpt lat="44.43921" lon="5.04047">
        <ele>377.94</ele>
        <time>2017-04-17T08:56:40Z</time>
      </trkpt>
      <trkpt lat="44.43934" lon="5.04068">
        <ele>379.38</ele>
        <time>2017-04-17T08:57:00Z</time>
      </trkpt>
      <trkpt lat="44.43946" lon="5.04083">
        <ele>382.74</ele>
        <time>2017-04-17T08:57:19Z</time>
      </trkpt>
      <trkpt lat="44.4395" lon="5.04087">
        <ele>383.7</ele>
        <time>2017-04-17T08:57:25Z</time>
      </trkpt>
      <trkpt lat="44.43964" lon="5.04095">
        <ele>385.15</ele>
        <time>2017-04-17T08:57:42Z</time>
      </trkpt>
      <trkpt lat="44.43981" lon="5.04102">
        <ele>387.07</ele>
        <time>2017-04-17T08:58:00Z</time>
      </trkpt>
      <trkpt lat="44.43994" lon="5.04106">
        <ele>390.43</ele>
        <time>2017-04-17T08:58:16Z</time>
      </trkpt>
      <trkpt lat="44.44005" lon="5.04108">
        <ele>392.84</ele>
        <time>2017-04-17T08:58:33Z</time>
      </trkpt>
      <trkpt lat="44.4401" lon="5.04103">
        <ele>394.76</ele>
        <time>2017-04-17T08:58:48Z</time>
      </trkpt>
      <trkpt lat="44.44013" lon="5.0409">
        <ele>394.76</ele>
        <time>2017-04-17T08:59:05Z</time>
      </trkpt>
      <trkpt lat="44.44018" lon="5.04081">
        <ele>394.76</ele>
        <time>2017-04-17T08:59:19Z</time>
      </trkpt>
      <trkpt lat="44.44025" lon="5.04068">
        <ele>394.28</ele>
        <time>2017-04-17T08:59:34Z</time>
      </trkpt>
      <trkpt lat="44.44027" lon="5.04065">
        <ele>394.28</ele>
        <time>2017-04-17T08:59:37Z</time>
      </trkpt>
      <trkpt lat="44.44046" lon="5.04049">
        <ele>395.72</ele>
        <time>2017-04-17T08:59:59Z</time>
      </trkpt>
      <trkpt lat="44.4406" lon="5.04041">
        <ele>396.68</ele>
        <time>2017-04-17T09:00:16Z</time>
      </trkpt>
      <trkpt lat="44.44061" lon="5.0404">
        <ele>396.68</ele>
        <time>2017-04-17T09:00:18Z</time>
      </trkpt>
      <trkpt lat="44.44075" lon="5.04027">
        <ele>397.64</ele>
        <time>2017-04-17T09:00:35Z</time>
      </trkpt>
      <trkpt lat="44.44079" lon="5.04024">
        <ele>397.16</ele>
        <time>2017-04-17T09:00:40Z</time>
      </trkpt>
      <trkpt lat="44.44094" lon="5.04014">
        <ele>399.57</ele>
        <time>2017-04-17T09:00:58Z</time>
      </trkpt>
      <trkpt lat="44.44111" lon="5.03998">
        <ele>399.57</ele>
        <time>2017-04-17T09:01:18Z</time>
      </trkpt>
      <trkpt lat="44.44128" lon="5.03984">
        <ele>400.53</ele>
        <time>2017-04-17T09:01:37Z</time>
      </trkpt>
      <trkpt lat="44.44132" lon="5.03981">
        <ele>401.01</ele>
        <time>2017-04-17T09:01:52Z</time>
      </trkpt>
      <trkpt lat="44.44133" lon="5.03977">
        <ele>401.01</ele>
        <time>2017-04-17T09:02:11Z</time>
      </trkpt>
      <trkpt lat="44.44135" lon="5.03971">
        <ele>401.01</ele>
        <time>2017-04-17T09:02:25Z</time>
      </trkpt>
      <trkpt lat="44.4414" lon="5.03972">
        <ele>401.01</ele>
        <time>2017-04-17T09:02:45Z</time>
      </trkpt>
      <trkpt lat="44.44159" lon="5.03959">
        <ele>401.01</ele>
        <time>2017-04-17T09:03:06Z</time>
      </trkpt>
      <trkpt lat="44.44173" lon="5.03953">
        <ele>401.01</ele>
        <time>2017-04-17T09:03:22Z</time>
      </trkpt>
      <trkpt lat="44.44174" lon="5.03953">
        <ele>401.01</ele>
        <time>2017-04-17T09:03:23Z</time>
      </trkpt>
      <trkpt lat="44.44197" lon="5.03955">
        <ele>401.97</ele>
        <time>2017-04-17T09:03:43Z</time>
      </trkpt>
      <trkpt lat="44.44215" lon="5.03959">
        <ele>403.41</ele>
        <time>2017-04-17T09:04:01Z</time>
      </trkpt>
      <trkpt lat="44.44233" lon="5.03958">
        <ele>403.89</ele>
        <time>2017-04-17T09:04:18Z</time>
      </trkpt>
      <trkpt lat="44.44251" lon="5.03958">
        <ele>403.89</ele>
        <time>2017-04-17T09:04:36Z</time>
      </trkpt>
      <trkpt lat="44.44265" lon="5.03959">
        <ele>407.26</ele>
        <time>2017-04-17T09:04:52Z</time>
      </trkpt>
      <trkpt lat="44.44283" lon="5.03959">
        <ele>408.22</ele>
        <time>2017-04-17T09:05:08Z</time>
      </trkpt>
      <trkpt lat="44.44296" lon="5.03954">
        <ele>409.66</ele>
        <time>2017-04-17T09:05:25Z</time>
      </trkpt>
      <trkpt lat="44.44299" lon="5.03951">
        <ele>409.18</ele>
        <time>2017-04-17T09:05:43Z</time>
      </trkpt>
      <trkpt lat="44.4431" lon="5.03944">
        <ele>408.22</ele>
        <time>2017-04-17T09:06:00Z</time>
      </trkpt>
      <trkpt lat="44.44314" lon="5.03936">
        <ele>406.77</ele>
        <time>2017-04-17T09:06:12Z</time>
      </trkpt>
      <trkpt lat="44.44314" lon="5.03935">
        <ele>406.77</ele>
        <time>2017-04-17T09:06:13Z</time>
      </trkpt>
      <trkpt lat="44.44313" lon="5.03931">
        <ele>405.81</ele>
        <time>2017-04-17T09:06:17Z</time>
      </trkpt>
      <trkpt lat="44.44319" lon="5.03915">
        <ele>404.37</ele>
        <time>2017-04-17T09:06:33Z</time>
      </trkpt>
      <trkpt lat="44.44321" lon="5.03899">
        <ele>403.41</ele>
        <time>2017-04-17T09:06:46Z</time>
      </trkpt>
      <trkpt lat="44.44328" lon="5.03882">
        <ele>403.41</ele>
        <time>2017-04-17T09:07:00Z</time>
      </trkpt>
      <trkpt lat="44.44333" lon="5.03859">
        <ele>402.45</ele>
        <time>2017-04-17T09:07:17Z</time>
      </trkpt>
      <trkpt lat="44.44332" lon="5.03852">
        <ele>401.97</ele>
        <time>2017-04-17T09:07:26Z</time>
      </trkpt>
      <trkpt lat="44.44322" lon="5.03844">
        <ele>401.49</ele>
        <time>2017-04-17T09:07:41Z</time>
      </trkpt>
      <trkpt lat="44.44312" lon="5.03851">
        <ele>403.41</ele>
        <time>2017-04-17T09:07:54Z</time>
      </trkpt>
      <trkpt lat="44.44302" lon="5.03858">
        <ele>404.37</ele>
        <time>2017-04-17T09:08:07Z</time>
      </trkpt>
      <trkpt lat="44.443" lon="5.03858">
        <ele>404.37</ele>
        <time>2017-04-17T09:08:09Z</time>
      </trkpt>
      <trkpt lat="44.44292" lon="5.03863">
        <ele>405.33</ele>
        <time>2017-04-17T09:08:19Z</time>
      </trkpt>
      <trkpt lat="44.44287" lon="5.03866">
        <ele>405.33</ele>
        <time>2017-04-17T09:08:25Z</time>
      </trkpt>
      <trkpt lat="44.44284" lon="5.03867">
        <ele>405.33</ele>
        <time>2017-04-17T09:08:28Z</time>
      </trkpt>
      <trkpt lat="44.44267" lon="5.03863">
        <ele>405.33</ele>
        <time>2017-04-17T09:08:45Z</time>
      </trkpt>
      <trkpt lat="44.44255" lon="5.03857">
        <ele>405.81</ele>
        <time>2017-04-17T09:08:59Z</time>
      </trkpt>
      <trkpt lat="44.44242" lon="5.03847">
        <ele>407.74</ele>
        <time>2017-04-17T09:09:13Z</time>
      </trkpt>
      <trkpt lat="44.44234" lon="5.03839">
        <ele>408.7</ele>
        <time>2017-04-17T09:09:29Z</time>
      </trkpt>
      <trkpt lat="44.44222" lon="5.0383">
        <ele>409.18</ele>
        <time>2017-04-17T09:09:45Z</time>
      </trkpt>
      <trkpt lat="44.44213" lon="5.0383">
        <ele>408.7</ele>
        <time>2017-04-17T09:09:52Z</time>
      </trkpt>
      <trkpt lat="44.4421" lon="5.03823">
        <ele>409.18</ele>
        <time>2017-04-17T09:10:00Z</time>
      </trkpt>
      <trkpt lat="44.44223" lon="5.03823">
        <ele>411.1</ele>
        <time>2017-04-17T09:10:15Z</time>
      </trkpt>
      <trkpt lat="44.44233" lon="5.03823">
        <ele>412.54</ele>
        <time>2017-04-17T09:10:31Z</time>
      </trkpt>
      <trkpt lat="44.44242" lon="5.0382">
        <ele>414.47</ele>
        <time>2017-04-17T09:10:48Z</time>
      </trkpt>
      <trkpt lat="44.44251" lon="5.03817">
        <ele>414.95</ele>
        <time>2017-04-17T09:11:02Z</time>
      </trkpt>
      <trkpt lat="44.4426" lon="5.03814">
        <ele>416.39</ele>
        <time>2017-04-17T09:11:16Z</time>
      </trkpt>
      <trkpt lat="44.44271" lon="5.0381">
        <ele>417.35</ele>
        <time>2017-04-17T09:11:32Z</time>
      </trkpt>
      <trkpt lat="44.44279" lon="5.03803">
        <ele>418.79</ele>
        <time>2017-04-17T09:11:46Z</time>
      </trkpt>
      <trkpt lat="44.44285" lon="5.03796">
        <ele>420.71</ele>
        <time>2017-04-17T09:12:03Z</time>
      </trkpt>
      <trkpt lat="44.44293" lon="5.03792">
        <ele>421.68</ele>
        <time>2017-04-17T09:12:15Z</time>
      </trkpt>
      <trkpt lat="44.44305" lon="5.03782">
        <ele>424.08</ele>
        <time>2017-04-17T09:12:29Z</time>
      </trkpt>
      <trkpt lat="44.44304" lon="5.03778">
        <ele>422.64</ele>
        <time>2017-04-17T09:12:54Z</time>
      </trkpt>
      <trkpt lat="44.44303" lon="5.03781">
        <ele>422.64</ele>
        <time>2017-04-17T09:13:14Z</time>
      </trkpt>
      <trkpt lat="44.44302" lon="5.03783">
        <ele>424.56</ele>
        <time>2017-04-17T09:13:35Z</time>
      </trkpt>
      <trkpt lat="44.44303" lon="5.03789">
        <ele>423.6</ele>
        <time>2017-04-17T09:14:02Z</time>
      </trkpt>
      <trkpt lat="44.44309" lon="5.03783">
        <ele>423.6</ele>
        <time>2017-04-17T09:14:24Z</time>
      </trkpt>
      <trkpt lat="44.44311" lon="5.03763">
        <ele>423.6</ele>
        <time>2017-04-17T09:14:42Z</time>
      </trkpt>
      <trkpt lat="44.44314" lon="5.0375">
        <ele>426.96</ele>
        <time>2017-04-17T09:14:55Z</time>
      </trkpt>
      <trkpt lat="44.44319" lon="5.03733">
        <ele>428.4</ele>
        <time>2017-04-17T09:15:10Z</time>
      </trkpt>
      <trkpt lat="44.44312" lon="5.03719">
        <ele>429.85</ele>
        <time>2017-04-17T09:15:27Z</time>
      </trkpt>
      <trkpt lat="44.44311" lon="5.03722">
        <ele>430.81</ele>
        <time>2017-04-17T09:15:42Z</time>
      </trkpt>
      <trkpt lat="44.44305" lon="5.03722">
        <ele>431.29</ele>
        <time>2017-04-17T09:16:00Z</time>
      </trkpt>
      <trkpt lat="44.44296" lon="5.03721">
        <ele>432.73</ele>
        <time>2017-04-17T09:16:14Z</time>
      </trkpt>
      <trkpt lat="44.44285" lon="5.03719">
        <ele>433.69</ele>
        <time>2017-04-17T09:16:30Z</time>
      </trkpt>
      <trkpt lat="44.4427" lon="5.03717">
        <ele>434.65</ele>
        <time>2017-04-17T09:16:48Z</time>
      </trkpt>
      <trkpt lat="44.44253" lon="5.03717">
        <ele>435.13</ele>
        <time>2017-04-17T09:17:06Z</time>
      </trkpt>
      <trkpt lat="44.4424" lon="5.03712">
        <ele>436.1</ele>
        <time>2017-04-17T09:17:21Z</time>
      </trkpt>
      <trkpt lat="44.4424" lon="5.03701">
        <ele>437.54</ele>
        <time>2017-04-17T09:17:36Z</time>
      </trkpt>
      <trkpt lat="44.44249" lon="5.03697">
        <ele>439.94</ele>
        <time>2017-04-17T09:17:54Z</time>
      </trkpt>
      <trkpt lat="44.44257" lon="5.03689">
        <ele>440.9</ele>
        <time>2017-04-17T09:18:13Z</time>
      </trkpt>
      <trkpt lat="44.44267" lon="5.03681">
        <ele>443.31</ele>
        <time>2017-04-17T09:18:32Z</time>
      </trkpt>
      <trkpt lat="44.44277" lon="5.03671">
        <ele>445.23</ele>
        <time>2017-04-17T09:18:47Z</time>
      </trkpt>
      <trkpt lat="44.44289" lon="5.03663">
        <ele>446.67</ele>
        <time>2017-04-17T09:19:06Z</time>
      </trkpt>
      <trkpt lat="44.44292" lon="5.03656">
        <ele>447.63</ele>
        <time>2017-04-17T09:19:20Z</time>
      </trkpt>
      <trkpt lat="44.44297" lon="5.03645">
        <ele>448.11</ele>
        <time>2017-04-17T09:19:40Z</time>
      </trkpt>
      <trkpt lat="44.44305" lon="5.03633">
        <ele>450.03</ele>
        <time>2017-04-17T09:19:55Z</time>
      </trkpt>
      <trkpt lat="44.44306" lon="5.03627">
        <ele>451</ele>
        <time>2017-04-17T09:20:09Z</time>
      </trkpt>
      <trkpt lat="44.44315" lon="5.03616">
        <ele>452.44</ele>
        <time>2017-04-17T09:20:22Z</time>
      </trkpt>
      <trkpt lat="44.44324" lon="5.03598">
        <ele>452.92</ele>
        <time>2017-04-17T09:20:41Z</time>
      </trkpt>
      <trkpt lat="44.44325" lon="5.03591">
        <ele>454.36</ele>
        <time>2017-04-17T09:20:58Z</time>
      </trkpt>
      <trkpt lat="44.44333" lon="5.03577">
        <ele>455.32</ele>
        <time>2017-04-17T09:21:13Z</time>
      </trkpt>
      <trkpt lat="44.44343" lon="5.03569">
        <ele>456.76</ele>
        <time>2017-04-17T09:21:28Z</time>
      </trkpt>
      <trkpt lat="44.44352" lon="5.03557">
        <ele>456.76</ele>
        <time>2017-04-17T09:21:43Z</time>
      </trkpt>
      <trkpt lat="44.44362" lon="5.03549">
        <ele>457.72</ele>
        <time>2017-04-17T09:21:56Z</time>
      </trkpt>
      <trkpt lat="44.44371" lon="5.03539">
        <ele>460.13</ele>
        <time>2017-04-17T09:22:11Z</time>
      </trkpt>
      <trkpt lat="44.44381" lon="5.03528">
        <ele>461.57</ele>
        <time>2017-04-17T09:22:27Z</time>
      </trkpt>
      <trkpt lat="44.44389" lon="5.03518">
        <ele>463.97</ele>
        <time>2017-04-17T09:22:42Z</time>
      </trkpt>
      <trkpt lat="44.44394" lon="5.03519">
        <ele>463.97</ele>
        <time>2017-04-17T09:22:59Z</time>
      </trkpt>
      <trkpt lat="44.44397" lon="5.0352">
        <ele>463.97</ele>
        <time>2017-04-17T09:23:26Z</time>
      </trkpt>
      <trkpt lat="44.444" lon="5.03518">
        <ele>463.97</ele>
        <time>2017-04-17T09:23:41Z</time>
      </trkpt>
      <trkpt lat="44.444" lon="5.03523">
        <ele>464.93</ele>
        <time>2017-04-17T09:24:16Z</time>
      </trkpt>
      <trkpt lat="44.44401" lon="5.03524">
        <ele>463.97</ele>
        <time>2017-04-17T09:24:26Z</time>
      </trkpt>
      <trkpt lat="44.44402" lon="5.03523">
        <ele>465.42</ele>
        <time>2017-04-17T09:24:36Z</time>
      </trkpt>
      <trkpt lat="44.44409" lon="5.03508">
        <ele>465.9</ele>
        <time>2017-04-17T09:24:53Z</time>
      </trkpt>
      <trkpt lat="44.44421" lon="5.03505">
        <ele>468.78</ele>
        <time>2017-04-17T09:25:11Z</time>
      </trkpt>
      <trkpt lat="44.4443" lon="5.03506">
        <ele>470.7</ele>
        <time>2017-04-17T09:25:27Z</time>
      </trkpt>
      <trkpt lat="44.44438" lon="5.03508">
        <ele>471.66</ele>
        <time>2017-04-17T09:25:41Z</time>
      </trkpt>
      <trkpt lat="44.4445" lon="5.03509">
        <ele>473.59</ele>
        <time>2017-04-17T09:25:56Z</time>
      </trkpt>
      <trkpt lat="44.44461" lon="5.03514">
        <ele>474.55</ele>
        <time>2017-04-17T09:26:13Z</time>
      </trkpt>
      <trkpt lat="44.44467" lon="5.03518">
        <ele>475.51</ele>
        <time>2017-04-17T09:26:32Z</time>
      </trkpt>
      <trkpt lat="44.44479" lon="5.03523">
        <ele>476.47</ele>
        <time>2017-04-17T09:26:49Z</time>
      </trkpt>
      <trkpt lat="44.4449" lon="5.03529">
        <ele>476.95</ele>
        <time>2017-04-17T09:27:04Z</time>
      </trkpt>
      <trkpt lat="44.44493" lon="5.03533">
        <ele>477.91</ele>
        <time>2017-04-17T09:27:21Z</time>
      </trkpt>
      <trkpt lat="44.44502" lon="5.03537">
        <ele>477.91</ele>
        <time>2017-04-17T09:27:41Z</time>
      </trkpt>
      <trkpt lat="44.44514" lon="5.03542">
        <ele>478.87</ele>
        <time>2017-04-17T09:27:58Z</time>
      </trkpt>
      <trkpt lat="44.44526" lon="5.03547">
        <ele>481.28</ele>
        <time>2017-04-17T09:28:16Z</time>
      </trkpt>
      <trkpt lat="44.44525" lon="5.03545">
        <ele>482.24</ele>
        <time>2017-04-17T09:28:34Z</time>
      </trkpt>
      <trkpt lat="44.44536" lon="5.0355">
        <ele>482.72</ele>
        <time>2017-04-17T09:28:51Z</time>
      </trkpt>
      <trkpt lat="44.4455" lon="5.03553">
        <ele>486.08</ele>
        <time>2017-04-17T09:29:09Z</time>
      </trkpt>
      <trkpt lat="44.44556" lon="5.03554">
        <ele>486.56</ele>
        <time>2017-04-17T09:29:25Z</time>
      </trkpt>
      <trkpt lat="44.44563" lon="5.03558">
        <ele>487.05</ele>
        <time>2017-04-17T09:29:39Z</time>
      </trkpt>
      <trkpt lat="44.44572" lon="5.03562">
        <ele>487.05</ele>
        <time>2017-04-17T09:29:56Z</time>
      </trkpt>
      <trkpt lat="44.44576" lon="5.03567">
        <ele>485.6</ele>
        <time>2017-04-17T09:30:17Z</time>
      </trkpt>
      <trkpt lat="44.44588" lon="5.0358">
        <ele>485.6</ele>
        <time>2017-04-17T09:30:33Z</time>
      </trkpt>
      <trkpt lat="44.44601" lon="5.03599">
        <ele>486.56</ele>
        <time>2017-04-17T09:30:52Z</time>
      </trkpt>
      <trkpt lat="44.44607" lon="5.0362">
        <ele>488.97</ele>
        <time>2017-04-17T09:31:11Z</time>
      </trkpt>
      <trkpt lat="44.44606" lon="5.03623">
        <ele>489.45</ele>
        <time>2017-04-17T09:31:34Z</time>
      </trkpt>
      <trkpt lat="44.44609" lon="5.03634">
        <ele>490.89</ele>
        <time>2017-04-17T09:31:49Z</time>
      </trkpt>
      <trkpt lat="44.44614" lon="5.03642">
        <ele>490.89</ele>
        <time>2017-04-17T09:32:00Z</time>
      </trkpt>
      <trkpt lat="44.44615" lon="5.03646">
        <ele>491.85</ele>
        <time>2017-04-17T09:32:18Z</time>
      </trkpt>
      <trkpt lat="44.44621" lon="5.03649">
        <ele>491.85</ele>
        <time>2017-04-17T09:32:39Z</time>
      </trkpt>
      <trkpt lat="44.44634" lon="5.03655">
        <ele>493.29</ele>
        <time>2017-04-17T09:32:56Z</time>
      </trkpt>
      <trkpt lat="44.44647" lon="5.03656">
        <ele>495.22</ele>
        <time>2017-04-17T09:33:12Z</time>
      </trkpt>
      <trkpt lat="44.44656" lon="5.03652">
        <ele>497.14</ele>
        <time>2017-04-17T09:33:25Z</time>
      </trkpt>
      <trkpt lat="44.44667" lon="5.03647">
        <ele>499.06</ele>
        <time>2017-04-17T09:33:41Z</time>
      </trkpt>
      <trkpt lat="44.44678" lon="5.0364">
        <ele>500.98</ele>
        <time>2017-04-17T09:33:57Z</time>
      </trkpt>
      <trkpt lat="44.44687" lon="5.03631">
        <ele>503.39</ele>
        <time>2017-04-17T09:34:15Z</time>
      </trkpt>
      <trkpt lat="44.44688" lon="5.03628">
        <ele>503.87</ele>
        <time>2017-04-17T09:34:19Z</time>
      </trkpt>
      <trkpt lat="44.44688" lon="5.03627">
        <ele>505.31</ele>
        <time>2017-04-17T09:34:28Z</time>
      </trkpt>
      <trkpt lat="44.44687" lon="5.03627">
        <ele>501.46</ele>
        <time>2017-04-17T09:34:36Z</time>
      </trkpt>
      <trkpt lat="44.44687" lon="5.03627">
        <ele>505.79</ele>
        <time>2017-04-17T09:34:37Z</time>
      </trkpt>
      <trkpt lat="44.44687" lon="5.03626">
        <ele>504.35</ele>
        <time>2017-04-17T09:34:57Z</time>
      </trkpt>
      <trkpt lat="44.44687" lon="5.03626">
        <ele>497.62</ele>
        <time>2017-04-17T09:35:11Z</time>
      </trkpt>
      <trkpt lat="44.44688" lon="5.03626">
        <ele>511.08</ele>
        <time>2017-04-17T09:35:12Z</time>
      </trkpt>
      <trkpt lat="44.44688" lon="5.03627">
        <ele>504.35</ele>
        <time>2017-04-17T09:35:13Z</time>
      </trkpt>
      <trkpt lat="44.44691" lon="5.03624">
        <ele>504.83</ele>
        <time>2017-04-17T09:35:20Z</time>
      </trkpt>
      <trkpt lat="44.447" lon="5.03616">
        <ele>506.75</ele>
        <time>2017-04-17T09:35:35Z</time>
      </trkpt>
      <trkpt lat="44.4471" lon="5.03607">
        <ele>508.67</ele>
        <time>2017-04-17T09:35:51Z</time>
      </trkpt>
      <trkpt lat="44.44717" lon="5.03596">
        <ele>510.6</ele>
        <time>2017-04-17T09:36:08Z</time>
      </trkpt>
      <trkpt lat="44.44721" lon="5.0359">
        <ele>510.6</ele>
        <time>2017-04-17T09:36:29Z</time>
      </trkpt>
      <trkpt lat="44.44723" lon="5.03588">
        <ele>508.67</ele>
        <time>2017-04-17T09:36:33Z</time>
      </trkpt>
      <trkpt lat="44.44723" lon="5.03587">
        <ele>510.12</ele>
        <time>2017-04-17T09:36:35Z</time>
      </trkpt>
      <trkpt lat="44.44728" lon="5.03585">
        <ele>511.56</ele>
        <time>2017-04-17T09:36:54Z</time>
      </trkpt>
      <trkpt lat="44.44732" lon="5.03585">
        <ele>510.12</ele>
        <time>2017-04-17T09:37:13Z</time>
      </trkpt>
      <trkpt lat="44.44738" lon="5.03581">
        <ele>510.12</ele>
        <time>2017-04-17T09:37:22Z</time>
      </trkpt>
      <trkpt lat="44.44753" lon="5.03575">
        <ele>513.48</ele>
        <time>2017-04-17T09:37:41Z</time>
      </trkpt>
      <trkpt lat="44.44754" lon="5.03575">
        <ele>513.48</ele>
        <time>2017-04-17T09:37:42Z</time>
      </trkpt>
      <trkpt lat="44.44758" lon="5.03573">
        <ele>515.4</ele>
        <time>2017-04-17T09:37:49Z</time>
      </trkpt>
      <trkpt lat="44.44765" lon="5.03571">
        <ele>513.48</ele>
        <time>2017-04-17T09:37:58Z</time>
      </trkpt>
      <trkpt lat="44.4477" lon="5.0357">
        <ele>514.44</ele>
        <time>2017-04-17T09:38:04Z</time>
      </trkpt>
      <trkpt lat="44.44785" lon="5.03565">
        <ele>515.4</ele>
        <time>2017-04-17T09:38:26Z</time>
      </trkpt>
      <trkpt lat="44.44785" lon="5.03564">
        <ele>516.37</ele>
        <time>2017-04-17T09:38:40Z</time>
      </trkpt>
      <trkpt lat="44.44786" lon="5.03562">
        <ele>514.92</ele>
        <time>2017-04-17T09:38:50Z</time>
      </trkpt>
      <trkpt lat="44.44794" lon="5.0356">
        <ele>514.44</ele>
        <time>2017-04-17T09:39:10Z</time>
      </trkpt>
      <trkpt lat="44.44798" lon="5.0356">
        <ele>515.88</ele>
        <time>2017-04-17T09:39:15Z</time>
      </trkpt>
      <trkpt lat="44.4481" lon="5.03559">
        <ele>515.4</ele>
        <time>2017-04-17T09:39:32Z</time>
      </trkpt>
      <trkpt lat="44.44823" lon="5.03561">
        <ele>516.37</ele>
        <time>2017-04-17T09:39:50Z</time>
      </trkpt>
      <trkpt lat="44.44837" lon="5.03562">
        <ele>518.29</ele>
        <time>2017-04-17T09:40:06Z</time>
      </trkpt>
      <trkpt lat="44.44855" lon="5.03562">
        <ele>516.85</ele>
        <time>2017-04-17T09:40:25Z</time>
      </trkpt>
      <trkpt lat="44.44859" lon="5.03561">
        <ele>517.81</ele>
        <time>2017-04-17T09:40:30Z</time>
      </trkpt>
      <trkpt lat="44.44866" lon="5.03561">
        <ele>521.17</ele>
        <time>2017-04-17T09:40:39Z</time>
      </trkpt>
      <trkpt lat="44.44874" lon="5.03557">
        <ele>521.65</ele>
        <time>2017-04-17T09:40:56Z</time>
      </trkpt>
      <trkpt lat="44.44874" lon="5.03557">
        <ele>520.21</ele>
        <time>2017-04-17T09:41:08Z</time>
      </trkpt>
      <trkpt lat="44.44885" lon="5.03556">
        <ele>521.65</ele>
        <time>2017-04-17T09:41:26Z</time>
      </trkpt>
      <trkpt lat="44.4489" lon="5.03556">
        <ele>522.61</ele>
        <time>2017-04-17T09:41:33Z</time>
      </trkpt>
      <trkpt lat="44.44902" lon="5.03553">
        <ele>524.06</ele>
        <time>2017-04-17T09:41:49Z</time>
      </trkpt>
      <trkpt lat="44.44907" lon="5.03549">
        <ele>524.06</ele>
        <time>2017-04-17T09:42:09Z</time>
      </trkpt>
      <trkpt lat="44.44912" lon="5.03549">
        <ele>524.06</ele>
        <time>2017-04-17T09:42:31Z</time>
      </trkpt>
      <trkpt lat="44.44924" lon="5.03546">
        <ele>525.5</ele>
        <time>2017-04-17T09:42:47Z</time>
      </trkpt>
      <trkpt lat="44.44936" lon="5.03542">
        <ele>526.94</ele>
        <time>2017-04-17T09:43:05Z</time>
      </trkpt>
      <trkpt lat="44.44949" lon="5.03535">
        <ele>527.9</ele>
        <time>2017-04-17T09:43:21Z</time>
      </trkpt>
      <trkpt lat="44.4495" lon="5.0353">
        <ele>528.86</ele>
        <time>2017-04-17T09:43:55Z</time>
      </trkpt>
      <trkpt lat="44.44961" lon="5.03528">
        <ele>528.86</ele>
        <time>2017-04-17T09:44:11Z</time>
      </trkpt>
      <trkpt lat="44.44971" lon="5.03523">
        <ele>529.34</ele>
        <time>2017-04-17T09:44:28Z</time>
      </trkpt>
      <trkpt lat="44.44969" lon="5.03521">
        <ele>529.34</ele>
        <time>2017-04-17T09:44:54Z</time>
      </trkpt>
      <trkpt lat="44.44973" lon="5.03519">
        <ele>531.75</ele>
        <time>2017-04-17T09:45:21Z</time>
      </trkpt>
      <trkpt lat="44.44977" lon="5.03518">
        <ele>529.82</ele>
        <time>2017-04-17T09:45:27Z</time>
      </trkpt>
      <trkpt lat="44.4498" lon="5.03517">
        <ele>531.75</ele>
        <time>2017-04-17T09:45:31Z</time>
      </trkpt>
      <trkpt lat="44.44986" lon="5.03514">
        <ele>532.71</ele>
        <time>2017-04-17T09:45:40Z</time>
      </trkpt>
      <trkpt lat="44.44996" lon="5.03511">
        <ele>533.67</ele>
        <time>2017-04-17T09:45:55Z</time>
      </trkpt>
      <trkpt lat="44.45002" lon="5.03511">
        <ele>533.19</ele>
        <time>2017-04-17T09:46:03Z</time>
      </trkpt>
      <trkpt lat="44.45005" lon="5.03511">
        <ele>534.63</ele>
        <time>2017-04-17T09:46:08Z</time>
      </trkpt>
      <trkpt lat="44.45015" lon="5.03519">
        <ele>537.03</ele>
        <time>2017-04-17T09:46:26Z</time>
      </trkpt>
      <trkpt lat="44.45024" lon="5.03526">
        <ele>537.99</ele>
        <time>2017-04-17T09:46:43Z</time>
      </trkpt>
      <trkpt lat="44.45031" lon="5.03538">
        <ele>539.92</ele>
        <time>2017-04-17T09:47:00Z</time>
      </trkpt>
      <trkpt lat="44.45038" lon="5.03545">
        <ele>541.36</ele>
        <time>2017-04-17T09:47:16Z</time>
      </trkpt>
      <trkpt lat="44.45039" lon="5.03546">
        <ele>540.4</ele>
        <time>2017-04-17T09:47:19Z</time>
      </trkpt>
      <trkpt lat="44.45041" lon="5.03549">
        <ele>541.36</ele>
        <time>2017-04-17T09:47:24Z</time>
      </trkpt>
      <trkpt lat="44.45049" lon="5.03558">
        <ele>542.8</ele>
        <time>2017-04-17T09:47:38Z</time>
      </trkpt>
      <trkpt lat="44.45056" lon="5.03566">
        <ele>544.24</ele>
        <time>2017-04-17T09:47:48Z</time>
      </trkpt>
      <trkpt lat="44.4506" lon="5.03568">
        <ele>543.28</ele>
        <time>2017-04-17T09:47:51Z</time>
      </trkpt>
      <trkpt lat="44.45061" lon="5.0357">
        <ele>543.28</ele>
        <time>2017-04-17T09:47:52Z</time>
      </trkpt>
      <trkpt lat="44.45061" lon="5.03574">
        <ele>544.72</ele>
        <time>2017-04-17T09:47:55Z</time>
      </trkpt>
      <trkpt lat="44.45062" lon="5.03575">
        <ele>542.8</ele>
        <time>2017-04-17T09:47:57Z</time>
      </trkpt>
      <trkpt lat="44.45065" lon="5.03577">
        <ele>544.24</ele>
        <time>2017-04-17T09:48:01Z</time>
      </trkpt>
      <trkpt lat="44.45073" lon="5.0359">
        <ele>546.17</ele>
        <time>2017-04-17T09:48:18Z</time>
      </trkpt>
      <trkpt lat="44.45076" lon="5.03594">
        <ele>546.17</ele>
        <time>2017-04-17T09:48:25Z</time>
      </trkpt>
      <trkpt lat="44.45082" lon="5.03603">
        <ele>548.09</ele>
        <time>2017-04-17T09:48:37Z</time>
      </trkpt>
      <trkpt lat="44.45086" lon="5.0361">
        <ele>547.61</ele>
        <time>2017-04-17T09:48:46Z</time>
      </trkpt>
      <trkpt lat="44.45087" lon="5.03613">
        <ele>548.57</ele>
        <time>2017-04-17T09:48:51Z</time>
      </trkpt>
      <trkpt lat="44.4509" lon="5.03613">
        <ele>549.53</ele>
        <time>2017-04-17T09:49:07Z</time>
      </trkpt>
      <trkpt lat="44.45092" lon="5.03617">
        <ele>549.53</ele>
        <time>2017-04-17T09:49:32Z</time>
      </trkpt>
      <trkpt lat="44.45102" lon="5.0363">
        <ele>550.49</ele>
        <time>2017-04-17T09:49:48Z</time>
      </trkpt>
      <trkpt lat="44.45107" lon="5.03641">
        <ele>553.86</ele>
        <time>2017-04-17T09:50:01Z</time>
      </trkpt>
      <trkpt lat="44.45111" lon="5.03653">
        <ele>553.86</ele>
        <time>2017-04-17T09:50:16Z</time>
      </trkpt>
      <trkpt lat="44.45113" lon="5.03663">
        <ele>555.78</ele>
        <time>2017-04-17T09:50:27Z</time>
      </trkpt>
      <trkpt lat="44.45115" lon="5.03674">
        <ele>556.74</ele>
        <time>2017-04-17T09:50:41Z</time>
      </trkpt>
      <trkpt lat="44.45117" lon="5.03688">
        <ele>559.14</ele>
        <time>2017-04-17T09:50:56Z</time>
      </trkpt>
      <trkpt lat="44.4512" lon="5.03705">
        <ele>559.62</ele>
        <time>2017-04-17T09:51:12Z</time>
      </trkpt>
      <trkpt lat="44.45122" lon="5.03722">
        <ele>560.11</ele>
        <time>2017-04-17T09:51:25Z</time>
      </trkpt>
      <trkpt lat="44.45124" lon="5.0374">
        <ele>563.47</ele>
        <time>2017-04-17T09:51:41Z</time>
      </trkpt>
      <trkpt lat="44.45128" lon="5.03755">
        <ele>564.91</ele>
        <time>2017-04-17T09:51:58Z</time>
      </trkpt>
      <trkpt lat="44.45135" lon="5.03768">
        <ele>567.8</ele>
        <time>2017-04-17T09:52:14Z</time>
      </trkpt>
      <trkpt lat="44.45146" lon="5.03778">
        <ele>568.28</ele>
        <time>2017-04-17T09:52:31Z</time>
      </trkpt>
      <trkpt lat="44.45155" lon="5.03782">
        <ele>571.64</ele>
        <time>2017-04-17T09:52:49Z</time>
      </trkpt>
      <trkpt lat="44.45155" lon="5.03781">
        <ele>570.2</ele>
        <time>2017-04-17T09:53:08Z</time>
      </trkpt>
      <trkpt lat="44.45154" lon="5.0378">
        <ele>570.68</ele>
        <time>2017-04-17T09:53:21Z</time>
      </trkpt>
      <trkpt lat="44.45155" lon="5.03781">
        <ele>570.2</ele>
        <time>2017-04-17T09:53:32Z</time>
      </trkpt>
      <trkpt lat="44.45155" lon="5.03781">
        <ele>571.64</ele>
        <time>2017-04-17T09:53:40Z</time>
      </trkpt>
      <trkpt lat="44.45156" lon="5.0378">
        <ele>570.2</ele>
        <time>2017-04-17T09:53:55Z</time>
      </trkpt>
      <trkpt lat="44.45162" lon="5.03788">
        <ele>573.08</ele>
        <time>2017-04-17T09:54:14Z</time>
      </trkpt>
      <trkpt lat="44.45165" lon="5.03793">
        <ele>574.53</ele>
        <time>2017-04-17T09:54:21Z</time>
      </trkpt>
      <trkpt lat="44.45169" lon="5.03804">
        <ele>572.12</ele>
        <time>2017-04-17T09:54:34Z</time>
      </trkpt>
      <trkpt lat="44.45174" lon="5.03814">
        <ele>575.49</ele>
        <time>2017-04-17T09:54:45Z</time>
      </trkpt>
      <trkpt lat="44.45182" lon="5.03826">
        <ele>578.37</ele>
        <time>2017-04-17T09:55:00Z</time>
      </trkpt>
      <trkpt lat="44.45194" lon="5.03838">
        <ele>580.77</ele>
        <time>2017-04-17T09:55:17Z</time>
      </trkpt>
      <trkpt lat="44.452" lon="5.03848">
        <ele>582.22</ele>
        <time>2017-04-17T09:55:36Z</time>
      </trkpt>
      <trkpt lat="44.45199" lon="5.03848">
        <ele>582.22</ele>
        <time>2017-04-17T09:55:55Z</time>
      </trkpt>
      <trkpt lat="44.45199" lon="5.03851">
        <ele>581.73</ele>
        <time>2017-04-17T09:56:15Z</time>
      </trkpt>
      <trkpt lat="44.45199" lon="5.03853">
        <ele>583.18</ele>
        <time>2017-04-17T09:56:30Z</time>
      </trkpt>
      <trkpt lat="44.452" lon="5.03856">
        <ele>583.66</ele>
        <time>2017-04-17T09:56:50Z</time>
      </trkpt>
      <trkpt lat="44.452" lon="5.03852">
        <ele>583.66</ele>
        <time>2017-04-17T09:57:15Z</time>
      </trkpt>
      <trkpt lat="44.45199" lon="5.03852">
        <ele>584.14</ele>
        <time>2017-04-17T09:57:36Z</time>
      </trkpt>
      <trkpt lat="44.45198" lon="5.03851">
        <ele>582.7</ele>
        <time>2017-04-17T09:57:55Z</time>
      </trkpt>
      <trkpt lat="44.45199" lon="5.03853">
        <ele>582.7</ele>
        <time>2017-04-17T09:58:12Z</time>
      </trkpt>
      <trkpt lat="44.45198" lon="5.03854">
        <ele>581.73</ele>
        <time>2017-04-17T09:58:31Z</time>
      </trkpt>
      <trkpt lat="44.45197" lon="5.03853">
        <ele>581.73</ele>
        <time>2017-04-17T09:58:49Z</time>
      </trkpt>
      <trkpt lat="44.4519" lon="5.03855">
        <ele>584.14</ele>
        <time>2017-04-17T09:59:06Z</time>
      </trkpt>
      <trkpt lat="44.45184" lon="5.03857">
        <ele>586.06</ele>
        <time>2017-04-17T09:59:22Z</time>
      </trkpt>
      <trkpt lat="44.45176" lon="5.03862">
        <ele>587.02</ele>
        <time>2017-04-17T09:59:38Z</time>
      </trkpt>
      <trkpt lat="44.45175" lon="5.03863">
        <ele>587.02</ele>
        <time>2017-04-17T09:59:39Z</time>
      </trkpt>
      <trkpt lat="44.45173" lon="5.03864">
        <ele>587.02</ele>
        <time>2017-04-17T09:59:44Z</time>
      </trkpt>
      <trkpt lat="44.45169" lon="5.0388">
        <ele>587.02</ele>
        <time>2017-04-17T09:59:59Z</time>
      </trkpt>
      <trkpt lat="44.45173" lon="5.03895">
        <ele>588.46</ele>
        <time>2017-04-17T10:00:15Z</time>
      </trkpt>
      <trkpt lat="44.45178" lon="5.03908">
        <ele>588.95</ele>
        <time>2017-04-17T10:00:31Z</time>
      </trkpt>
      <trkpt lat="44.45182" lon="5.03923">
        <ele>587.98</ele>
        <time>2017-04-17T10:00:47Z</time>
      </trkpt>
      <trkpt lat="44.45184" lon="5.03939">
        <ele>587.98</ele>
        <time>2017-04-17T10:01:04Z</time>
      </trkpt>
      <trkpt lat="44.45184" lon="5.03942">
        <ele>589.91</ele>
        <time>2017-04-17T10:01:22Z</time>
      </trkpt>
      <trkpt lat="44.45187" lon="5.03946">
        <ele>589.91</ele>
        <time>2017-04-17T10:01:42Z</time>
      </trkpt>
      <trkpt lat="44.45188" lon="5.03943">
        <ele>590.39</ele>
        <time>2017-04-17T10:02:00Z</time>
      </trkpt>
      <trkpt lat="44.45186" lon="5.03941">
        <ele>590.39</ele>
        <time>2017-04-17T10:02:16Z</time>
      </trkpt>
      <trkpt lat="44.45189" lon="5.03943">
        <ele>590.39</ele>
        <time>2017-04-17T10:02:40Z</time>
      </trkpt>
      <trkpt lat="44.45189" lon="5.03945">
        <ele>589.91</ele>
        <time>2017-04-17T10:03:08Z</time>
      </trkpt>
      <trkpt lat="44.45184" lon="5.03941">
        <ele>589.91</ele>
        <time>2017-04-17T10:03:29Z</time>
      </trkpt>
      <trkpt lat="44.45183" lon="5.03941">
        <ele>589.91</ele>
        <time>2017-04-17T10:03:57Z</time>
      </trkpt>
      <trkpt lat="44.45182" lon="5.03942">
        <ele>588.46</ele>
        <time>2017-04-17T10:04:21Z</time>
      </trkpt>
      <trkpt lat="44.45181" lon="5.03942">
        <ele>589.91</ele>
        <time>2017-04-17T10:04:44Z</time>
      </trkpt>
      <trkpt lat="44.45179" lon="5.03943">
        <ele>588.46</ele>
        <time>2017-04-17T10:05:04Z</time>
      </trkpt>
      <trkpt lat="44.45179" lon="5.03942">
        <ele>591.83</ele>
        <time>2017-04-17T10:05:16Z</time>
      </trkpt>
      <trkpt lat="44.45179" lon="5.03942">
        <ele>589.43</ele>
        <time>2017-04-17T10:05:17Z</time>
      </trkpt>
      <trkpt lat="44.4518" lon="5.03942">
        <ele>589.43</ele>
        <time>2017-04-17T10:05:47Z</time>
      </trkpt>
      <trkpt lat="44.4518" lon="5.03942">
        <ele>590.87</ele>
        <time>2017-04-17T10:05:51Z</time>
      </trkpt>
      <trkpt lat="44.4518" lon="5.03943">
        <ele>591.35</ele>
        <time>2017-04-17T10:06:17Z</time>
      </trkpt>
      <trkpt lat="44.45179" lon="5.03941">
        <ele>591.35</ele>
        <time>2017-04-17T10:06:38Z</time>
      </trkpt>
      <trkpt lat="44.4518" lon="5.0394">
        <ele>588.95</ele>
        <time>2017-04-17T10:07:07Z</time>
      </trkpt>
      <trkpt lat="44.4518" lon="5.03941">
        <ele>590.39</ele>
        <time>2017-04-17T10:07:23Z</time>
      </trkpt>
      <trkpt lat="44.4518" lon="5.03941">
        <ele>590.87</ele>
        <time>2017-04-17T10:07:59Z</time>
      </trkpt>
      <trkpt lat="44.45181" lon="5.03941">
        <ele>589.43</ele>
        <time>2017-04-17T10:08:24Z</time>
      </trkpt>
      <trkpt lat="44.45179" lon="5.03941">
        <ele>589.43</ele>
        <time>2017-04-17T10:08:53Z</time>
      </trkpt>
      <trkpt lat="44.45181" lon="5.0394">
        <ele>590.87</ele>
        <time>2017-04-17T10:09:14Z</time>
      </trkpt>
      <trkpt lat="44.45184" lon="5.0394">
        <ele>591.35</ele>
        <time>2017-04-17T10:09:30Z</time>
      </trkpt>
      <trkpt lat="44.45184" lon="5.0394">
        <ele>590.39</ele>
        <time>2017-04-17T10:09:32Z</time>
      </trkpt>
      <trkpt lat="44.45183" lon="5.0394">
        <ele>590.39</ele>
        <time>2017-04-17T10:10:09Z</time>
      </trkpt>
      <trkpt lat="44.45182" lon="5.03941">
        <ele>589.91</ele>
        <time>2017-04-17T10:10:45Z</time>
      </trkpt>
      <trkpt lat="44.45183" lon="5.03942">
        <ele>591.35</ele>
        <time>2017-04-17T10:11:03Z</time>
      </trkpt>
      <trkpt lat="44.45182" lon="5.03943">
        <ele>589.91</ele>
        <time>2017-04-17T10:11:28Z</time>
      </trkpt>
      <trkpt lat="44.45184" lon="5.03943">
        <ele>588.95</ele>
        <time>2017-04-17T10:11:57Z</time>
      </trkpt>
      <trkpt lat="44.45184" lon="5.03941">
        <ele>588.95</ele>
        <time>2017-04-17T10:12:33Z</time>
      </trkpt>
      <trkpt lat="44.45182" lon="5.03941">
        <ele>588.95</ele>
        <time>2017-04-17T10:13:12Z</time>
      </trkpt>
      <trkpt lat="44.45182" lon="5.03942">
        <ele>589.43</ele>
        <time>2017-04-17T10:13:36Z</time>
      </trkpt>
      <trkpt lat="44.45181" lon="5.03943">
        <ele>590.39</ele>
        <time>2017-04-17T10:14:07Z</time>
      </trkpt>
      <trkpt lat="44.45181" lon="5.03942">
        <ele>590.39</ele>
        <time>2017-04-17T10:14:38Z</time>
      </trkpt>
      <trkpt lat="44.45181" lon="5.03942">
        <ele>587.5</ele>
        <time>2017-04-17T10:14:59Z</time>
      </trkpt>
      <trkpt lat="44.4518" lon="5.03942">
        <ele>594.23</ele>
        <time>2017-04-17T10:15:00Z</time>
      </trkpt>
      <trkpt lat="44.4518" lon="5.03942">
        <ele>591.83</ele>
        <time>2017-04-17T10:15:01Z</time>
      </trkpt>
      <trkpt lat="44.45181" lon="5.03942">
        <ele>590.87</ele>
        <time>2017-04-17T10:15:03Z</time>
      </trkpt>
      <trkpt lat="44.4518" lon="5.03942">
        <ele>589.43</ele>
        <time>2017-04-17T10:15:18Z</time>
      </trkpt>
      <trkpt lat="44.45181" lon="5.03942">
        <ele>591.35</ele>
        <time>2017-04-17T10:15:20Z</time>
      </trkpt>
      <trkpt lat="44.45182" lon="5.03944">
        <ele>592.31</ele>
        <time>2017-04-17T10:15:49Z</time>
      </trkpt>
      <trkpt lat="44.45184" lon="5.0394">
        <ele>590.87</ele>
        <time>2017-04-17T10:16:16Z</time>
      </trkpt>
      <trkpt lat="44.45182" lon="5.0394">
        <ele>590.87</ele>
        <time>2017-04-17T10:16:41Z</time>
      </trkpt>
      <trkpt lat="44.45184" lon="5.03941">
        <ele>589.91</ele>
        <time>2017-04-17T10:17:07Z</time>
      </trkpt>
      <trkpt lat="44.45185" lon="5.03942">
        <ele>591.35</ele>
        <time>2017-04-17T10:17:29Z</time>
      </trkpt>
      <trkpt lat="44.45185" lon="5.03941">
        <ele>587.98</ele>
        <time>2017-04-17T10:17:53Z</time>
      </trkpt>
      <trkpt lat="44.45185" lon="5.03942">
        <ele>591.35</ele>
        <time>2017-04-17T10:17:55Z</time>
      </trkpt>
      <trkpt lat="44.45185" lon="5.03942">
        <ele>590.87</ele>
        <time>2017-04-17T10:17:56Z</time>
      </trkpt>
      <trkpt lat="44.45183" lon="5.03942">
        <ele>590.39</ele>
        <time>2017-04-17T10:18:35Z</time>
      </trkpt>
      <trkpt lat="44.45182" lon="5.03944">
        <ele>589.91</ele>
        <time>2017-04-17T10:19:20Z</time>
      </trkpt>
      <trkpt lat="44.45182" lon="5.03944">
        <ele>591.35</ele>
        <time>2017-04-17T10:19:36Z</time>
      </trkpt>
      <trkpt lat="44.45181" lon="5.03944">
        <ele>592.31</ele>
        <time>2017-04-17T10:20:04Z</time>
      </trkpt>
      <trkpt lat="44.45183" lon="5.03945">
        <ele>592.31</ele>
        <time>2017-04-17T10:20:35Z</time>
      </trkpt>
      <trkpt lat="44.45184" lon="5.03945">
        <ele>592.31</ele>
        <time>2017-04-17T10:21:08Z</time>
      </trkpt>
      <trkpt lat="44.45188" lon="5.03945">
        <ele>590.87</ele>
        <time>2017-04-17T10:21:37Z</time>
      </trkpt>
      <trkpt lat="44.45188" lon="5.03945">
        <ele>592.31</ele>
        <time>2017-04-17T10:21:45Z</time>
      </trkpt>
      <trkpt lat="44.45184" lon="5.03944">
        <ele>592.79</ele>
        <time>2017-04-17T10:22:17Z</time>
      </trkpt>
      <trkpt lat="44.45184" lon="5.03945">
        <ele>589.91</ele>
        <time>2017-04-17T10:22:21Z</time>
      </trkpt>
      <trkpt lat="44.4518" lon="5.03953">
        <ele>592.79</ele>
        <time>2017-04-17T10:22:48Z</time>
      </trkpt>
      <trkpt lat="44.45185" lon="5.03947">
        <ele>592.31</ele>
        <time>2017-04-17T10:23:11Z</time>
      </trkpt>
      <trkpt lat="44.45187" lon="5.03949">
        <ele>591.83</ele>
        <time>2017-04-17T10:23:48Z</time>
      </trkpt>
      <trkpt lat="44.45188" lon="5.03945">
        <ele>591.83</ele>
        <time>2017-04-17T10:24:17Z</time>
      </trkpt>
      <trkpt lat="44.45184" lon="5.03946">
        <ele>590.87</ele>
        <time>2017-04-17T10:24:52Z</time>
      </trkpt>
      <trkpt lat="44.45182" lon="5.03948">
        <ele>590.87</ele>
        <time>2017-04-17T10:25:14Z</time>
      </trkpt>
      <trkpt lat="44.45184" lon="5.03941">
        <ele>591.83</ele>
        <time>2017-04-17T10:25:40Z</time>
      </trkpt>
      <trkpt lat="44.45185" lon="5.03945">
        <ele>589.91</ele>
        <time>2017-04-17T10:26:04Z</time>
      </trkpt>
      <trkpt lat="44.45184" lon="5.03943">
        <ele>591.83</ele>
        <time>2017-04-17T10:26:21Z</time>
      </trkpt>
      <trkpt lat="44.45179" lon="5.03947">
        <ele>591.83</ele>
        <time>2017-04-17T10:26:44Z</time>
      </trkpt>
      <trkpt lat="44.45183" lon="5.03944">
        <ele>591.83</ele>
        <time>2017-04-17T10:27:11Z</time>
      </trkpt>
      <trkpt lat="44.45186" lon="5.03944">
        <ele>591.83</ele>
        <time>2017-04-17T10:27:38Z</time>
      </trkpt>
      <trkpt lat="44.45186" lon="5.03942">
        <ele>591.35</ele>
        <time>2017-04-17T10:28:03Z</time>
      </trkpt>
      <trkpt lat="44.45187" lon="5.03939">
        <ele>591.83</ele>
        <time>2017-04-17T10:28:32Z</time>
      </trkpt>
      <trkpt lat="44.4519" lon="5.03939">
        <ele>592.31</ele>
        <time>2017-04-17T10:28:55Z</time>
      </trkpt>
      <trkpt lat="44.45188" lon="5.03942">
        <ele>592.31</ele>
        <time>2017-04-17T10:29:23Z</time>
      </trkpt>
      <trkpt lat="44.45186" lon="5.03945">
        <ele>592.31</ele>
        <time>2017-04-17T10:29:58Z</time>
      </trkpt>
      <trkpt lat="44.45186" lon="5.03941">
        <ele>592.79</ele>
        <time>2017-04-17T10:30:23Z</time>
      </trkpt>
      <trkpt lat="44.45186" lon="5.03937">
        <ele>591.35</ele>
        <time>2017-04-17T10:30:45Z</time>
      </trkpt>
      <trkpt lat="44.45186" lon="5.03933">
        <ele>591.35</ele>
        <time>2017-04-17T10:31:09Z</time>
      </trkpt>
      <trkpt lat="44.45179" lon="5.03946">
        <ele>592.79</ele>
        <time>2017-04-17T10:31:19Z</time>
      </trkpt>
      <trkpt lat="44.45184" lon="5.03937">
        <ele>592.79</ele>
        <time>2017-04-17T10:31:43Z</time>
      </trkpt>
      <trkpt lat="44.45186" lon="5.03941">
        <ele>591.35</ele>
        <time>2017-04-17T10:32:14Z</time>
      </trkpt>
      <trkpt lat="44.45189" lon="5.03942">
        <ele>591.35</ele>
        <time>2017-04-17T10:32:42Z</time>
      </trkpt>
      <trkpt lat="44.45189" lon="5.0394">
        <ele>591.35</ele>
        <time>2017-04-17T10:33:06Z</time>
      </trkpt>
      <trkpt lat="44.4519" lon="5.03941">
        <ele>592.31</ele>
        <time>2017-04-17T10:33:30Z</time>
      </trkpt>
      <trkpt lat="44.45183" lon="5.03942">
        <ele>591.35</ele>
        <time>2017-04-17T10:33:49Z</time>
      </trkpt>
      <trkpt lat="44.45187" lon="5.03951">
        <ele>591.35</ele>
        <time>2017-04-17T10:34:27Z</time>
      </trkpt>
      <trkpt lat="44.4519" lon="5.03949">
        <ele>591.35</ele>
        <time>2017-04-17T10:34:56Z</time>
      </trkpt>
      <trkpt lat="44.45189" lon="5.03948">
        <ele>590.87</ele>
        <time>2017-04-17T10:35:26Z</time>
      </trkpt>
      <trkpt lat="44.45189" lon="5.03947">
        <ele>591.83</ele>
        <time>2017-04-17T10:35:49Z</time>
      </trkpt>
      <trkpt lat="44.45188" lon="5.03945">
        <ele>591.35</ele>
        <time>2017-04-17T10:36:16Z</time>
      </trkpt>
      <trkpt lat="44.45188" lon="5.03944">
        <ele>590.87</ele>
        <time>2017-04-17T10:36:45Z</time>
      </trkpt>
      <trkpt lat="44.45187" lon="5.03942">
        <ele>590.87</ele>
        <time>2017-04-17T10:37:10Z</time>
      </trkpt>
      <trkpt lat="44.45185" lon="5.03944">
        <ele>592.31</ele>
        <time>2017-04-17T10:37:44Z</time>
      </trkpt>
      <trkpt lat="44.45184" lon="5.03944">
        <ele>590.87</ele>
        <time>2017-04-17T10:38:17Z</time>
      </trkpt>
      <trkpt lat="44.45183" lon="5.03941">
        <ele>592.31</ele>
        <time>2017-04-17T10:38:47Z</time>
      </trkpt>
      <trkpt lat="44.45183" lon="5.03942">
        <ele>591.35</ele>
        <time>2017-04-17T10:39:06Z</time>
      </trkpt>
      <trkpt lat="44.45184" lon="5.03942">
        <ele>591.35</ele>
        <time>2017-04-17T10:39:31Z</time>
      </trkpt>
      <trkpt lat="44.45183" lon="5.03945">
        <ele>591.35</ele>
        <time>2017-04-17T10:39:50Z</time>
      </trkpt>
      <trkpt lat="44.45187" lon="5.03946">
        <ele>591.35</ele>
        <time>2017-04-17T10:40:15Z</time>
      </trkpt>
      <trkpt lat="44.4519" lon="5.03947">
        <ele>592.79</ele>
        <time>2017-04-17T10:40:43Z</time>
      </trkpt>
      <trkpt lat="44.45191" lon="5.03947">
        <ele>593.27</ele>
        <time>2017-04-17T10:41:16Z</time>
      </trkpt>
      <trkpt lat="44.45187" lon="5.03948">
        <ele>593.27</ele>
        <time>2017-04-17T10:41:34Z</time>
      </trkpt>
      <trkpt lat="44.45188" lon="5.03947">
        <ele>593.27</ele>
        <time>2017-04-17T10:42:02Z</time>
      </trkpt>
      <trkpt lat="44.45189" lon="5.03945">
        <ele>591.35</ele>
        <time>2017-04-17T10:42:23Z</time>
      </trkpt>
      <trkpt lat="44.45187" lon="5.03943">
        <ele>592.31</ele>
        <time>2017-04-17T10:42:42Z</time>
      </trkpt>
      <trkpt lat="44.4519" lon="5.03942">
        <ele>591.83</ele>
        <time>2017-04-17T10:43:09Z</time>
      </trkpt>
      <trkpt lat="44.45188" lon="5.03942">
        <ele>591.83</ele>
        <time>2017-04-17T10:43:42Z</time>
      </trkpt>
      <trkpt lat="44.45189" lon="5.03941">
        <ele>595.19</ele>
        <time>2017-04-17T10:43:52Z</time>
      </trkpt>
      <trkpt lat="44.45187" lon="5.03941">
        <ele>591.83</ele>
        <time>2017-04-17T10:44:08Z</time>
      </trkpt>
      <trkpt lat="44.45187" lon="5.0394">
        <ele>591.35</ele>
        <time>2017-04-17T10:44:23Z</time>
      </trkpt>
      <trkpt lat="44.45188" lon="5.0394">
        <ele>593.27</ele>
        <time>2017-04-17T10:44:25Z</time>
      </trkpt>
      <trkpt lat="44.45191" lon="5.03946">
        <ele>592.31</ele>
        <time>2017-04-17T10:44:43Z</time>
      </trkpt>
      <trkpt lat="44.45191" lon="5.03947">
        <ele>591.83</ele>
        <time>2017-04-17T10:45:11Z</time>
      </trkpt>
      <trkpt lat="44.45191" lon="5.03949">
        <ele>591.83</ele>
        <time>2017-04-17T10:45:35Z</time>
      </trkpt>
      <trkpt lat="44.45195" lon="5.03952">
        <ele>594.23</ele>
        <time>2017-04-17T10:45:55Z</time>
      </trkpt>
      <trkpt lat="44.45203" lon="5.03959">
        <ele>594.71</ele>
        <time>2017-04-17T10:46:13Z</time>
      </trkpt>
      <trkpt lat="44.45212" lon="5.03967">
        <ele>595.19</ele>
        <time>2017-04-17T10:46:31Z</time>
      </trkpt>
      <trkpt lat="44.45221" lon="5.03976">
        <ele>597.12</ele>
        <time>2017-04-17T10:46:48Z</time>
      </trkpt>
      <trkpt lat="44.4523" lon="5.03982">
        <ele>597.6</ele>
        <time>2017-04-17T10:47:05Z</time>
      </trkpt>
      <trkpt lat="44.45237" lon="5.03988">
        <ele>599.52</ele>
        <time>2017-04-17T10:47:20Z</time>
      </trkpt>
      <trkpt lat="44.45245" lon="5.03995">
        <ele>602.4</ele>
        <time>2017-04-17T10:47:36Z</time>
      </trkpt>
      <trkpt lat="44.45253" lon="5.04003">
        <ele>602.88</ele>
        <time>2017-04-17T10:47:52Z</time>
      </trkpt>
      <trkpt lat="44.45252" lon="5.04003">
        <ele>603.85</ele>
        <time>2017-04-17T10:48:11Z</time>
      </trkpt>
      <trkpt lat="44.45252" lon="5.04003">
        <ele>602.4</ele>
        <time>2017-04-17T10:48:17Z</time>
      </trkpt>
      <trkpt lat="44.45254" lon="5.04005">
        <ele>602.88</ele>
        <time>2017-04-17T10:48:37Z</time>
      </trkpt>
      <trkpt lat="44.45262" lon="5.04012">
        <ele>604.33</ele>
        <time>2017-04-17T10:48:51Z</time>
      </trkpt>
      <trkpt lat="44.45269" lon="5.04019">
        <ele>605.29</ele>
        <time>2017-04-17T10:49:05Z</time>
      </trkpt>
      <trkpt lat="44.45277" lon="5.04027">
        <ele>606.25</ele>
        <time>2017-04-17T10:49:22Z</time>
      </trkpt>
      <trkpt lat="44.45287" lon="5.04036">
        <ele>607.21</ele>
        <time>2017-04-17T10:49:40Z</time>
      </trkpt>
      <trkpt lat="44.45296" lon="5.04041">
        <ele>610.09</ele>
        <time>2017-04-17T10:49:58Z</time>
      </trkpt>
      <trkpt lat="44.45306" lon="5.04048">
        <ele>611.06</ele>
        <time>2017-04-17T10:50:16Z</time>
      </trkpt>
      <trkpt lat="44.45315" lon="5.04057">
        <ele>611.06</ele>
        <time>2017-04-17T10:50:31Z</time>
      </trkpt>
      <trkpt lat="44.45325" lon="5.04066">
        <ele>614.42</ele>
        <time>2017-04-17T10:50:47Z</time>
      </trkpt>
      <trkpt lat="44.45335" lon="5.04077">
        <ele>613.46</ele>
        <time>2017-04-17T10:51:06Z</time>
      </trkpt>
      <trkpt lat="44.45343" lon="5.04087">
        <ele>615.86</ele>
        <time>2017-04-17T10:51:22Z</time>
      </trkpt>
      <trkpt lat="44.45352" lon="5.04095">
        <ele>616.34</ele>
        <time>2017-04-17T10:51:39Z</time>
      </trkpt>
      <trkpt lat="44.4536" lon="5.04101">
        <ele>618.75</ele>
        <time>2017-04-17T10:51:56Z</time>
      </trkpt>
      <trkpt lat="44.45368" lon="5.04108">
        <ele>621.15</ele>
        <time>2017-04-17T10:52:13Z</time>
      </trkpt>
      <trkpt lat="44.45376" lon="5.0412">
        <ele>622.11</ele>
        <time>2017-04-17T10:52:30Z</time>
      </trkpt>
      <trkpt lat="44.45379" lon="5.04126">
        <ele>622.11</ele>
        <time>2017-04-17T10:52:46Z</time>
      </trkpt>
      <trkpt lat="44.45383" lon="5.0413">
        <ele>624.03</ele>
        <time>2017-04-17T10:52:58Z</time>
      </trkpt>
      <trkpt lat="44.45384" lon="5.04131">
        <ele>623.55</ele>
        <time>2017-04-17T10:53:20Z</time>
      </trkpt>
      <trkpt lat="44.45384" lon="5.04133">
        <ele>623.55</ele>
        <time>2017-04-17T10:53:38Z</time>
      </trkpt>
      <trkpt lat="44.45382" lon="5.04135">
        <ele>624.03</ele>
        <time>2017-04-17T10:54:10Z</time>
      </trkpt>
      <trkpt lat="44.45384" lon="5.04134">
        <ele>624.99</ele>
        <time>2017-04-17T10:54:30Z</time>
      </trkpt>
      <trkpt lat="44.45385" lon="5.0413">
        <ele>623.55</ele>
        <time>2017-04-17T10:54:57Z</time>
      </trkpt>
      <trkpt lat="44.45387" lon="5.04119">
        <ele>623.55</ele>
        <time>2017-04-17T10:55:15Z</time>
      </trkpt>
      <trkpt lat="44.45386" lon="5.04113">
        <ele>624.99</ele>
        <time>2017-04-17T10:55:20Z</time>
      </trkpt>
      <trkpt lat="44.45376" lon="5.04095">
        <ele>624.03</ele>
        <time>2017-04-17T10:55:38Z</time>
      </trkpt>
      <trkpt lat="44.4537" lon="5.04075">
        <ele>624.99</ele>
        <time>2017-04-17T10:55:56Z</time>
      </trkpt>
      <trkpt lat="44.4537" lon="5.04072">
        <ele>626.44</ele>
        <time>2017-04-17T10:55:59Z</time>
      </trkpt>
      <trkpt lat="44.4537" lon="5.04065">
        <ele>626.44</ele>
        <time>2017-04-17T10:56:07Z</time>
      </trkpt>
      <trkpt lat="44.45366" lon="5.0405">
        <ele>628.36</ele>
        <time>2017-04-17T10:56:24Z</time>
      </trkpt>
      <trkpt lat="44.45364" lon="5.04041">
        <ele>629.8</ele>
        <time>2017-04-17T10:56:42Z</time>
      </trkpt>
      <trkpt lat="44.45365" lon="5.04038">
        <ele>631.24</ele>
        <time>2017-04-17T10:57:02Z</time>
      </trkpt>
      <trkpt lat="44.45359" lon="5.04027">
        <ele>632.68</ele>
        <time>2017-04-17T10:57:18Z</time>
      </trkpt>
      <trkpt lat="44.45352" lon="5.04016">
        <ele>632.68</ele>
        <time>2017-04-17T10:57:35Z</time>
      </trkpt>
      <trkpt lat="44.45343" lon="5.04003">
        <ele>630.28</ele>
        <time>2017-04-17T10:57:54Z</time>
      </trkpt>
      <trkpt lat="44.45333" lon="5.03995">
        <ele>628.36</ele>
        <time>2017-04-17T10:58:13Z</time>
      </trkpt>
      <trkpt lat="44.45325" lon="5.03986">
        <ele>626.92</ele>
        <time>2017-04-17T10:58:30Z</time>
      </trkpt>
      <trkpt lat="44.45315" lon="5.03979">
        <ele>625.47</ele>
        <time>2017-04-17T10:58:44Z</time>
      </trkpt>
      <trkpt lat="44.45312" lon="5.03967">
        <ele>623.55</ele>
        <time>2017-04-17T10:58:59Z</time>
      </trkpt>
      <trkpt lat="44.45315" lon="5.03951">
        <ele>622.59</ele>
        <time>2017-04-17T10:59:14Z</time>
      </trkpt>
      <trkpt lat="44.45321" lon="5.03939">
        <ele>619.71</ele>
        <time>2017-04-17T10:59:30Z</time>
      </trkpt>
      <trkpt lat="44.45328" lon="5.03931">
        <ele>619.71</ele>
        <time>2017-04-17T10:59:41Z</time>
      </trkpt>
      <trkpt lat="44.45338" lon="5.03929">
        <ele>619.23</ele>
        <time>2017-04-17T10:59:57Z</time>
      </trkpt>
      <trkpt lat="44.45354" lon="5.03915">
        <ele>621.15</ele>
        <time>2017-04-17T11:00:17Z</time>
      </trkpt>
      <trkpt lat="44.45365" lon="5.03905">
        <ele>621.63</ele>
        <time>2017-04-17T11:00:32Z</time>
      </trkpt>
      <trkpt lat="44.45376" lon="5.03898">
        <ele>622.11</ele>
        <time>2017-04-17T11:00:46Z</time>
      </trkpt>
      <trkpt lat="44.45386" lon="5.03886">
        <ele>621.63</ele>
        <time>2017-04-17T11:01:01Z</time>
      </trkpt>
      <trkpt lat="44.45395" lon="5.03879">
        <ele>621.63</ele>
        <time>2017-04-17T11:01:16Z</time>
      </trkpt>
      <trkpt lat="44.45405" lon="5.0387">
        <ele>622.59</ele>
        <time>2017-04-17T11:01:33Z</time>
      </trkpt>
      <trkpt lat="44.45414" lon="5.03865">
        <ele>624.03</ele>
        <time>2017-04-17T11:01:48Z</time>
      </trkpt>
      <trkpt lat="44.45422" lon="5.03857">
        <ele>624.03</ele>
        <time>2017-04-17T11:02:03Z</time>
      </trkpt>
      <trkpt lat="44.45435" lon="5.03851">
        <ele>624.51</ele>
        <time>2017-04-17T11:02:21Z</time>
      </trkpt>
      <trkpt lat="44.45445" lon="5.03842">
        <ele>624.51</ele>
        <time>2017-04-17T11:02:37Z</time>
      </trkpt>
      <trkpt lat="44.45456" lon="5.03834">
        <ele>624.03</ele>
        <time>2017-04-17T11:02:53Z</time>
      </trkpt>
      <trkpt lat="44.45468" lon="5.03822">
        <ele>624.51</ele>
        <time>2017-04-17T11:03:08Z</time>
      </trkpt>
      <trkpt lat="44.45479" lon="5.03813">
        <ele>624.99</ele>
        <time>2017-04-17T11:03:23Z</time>
      </trkpt>
      <trkpt lat="44.45491" lon="5.03797">
        <ele>623.55</ele>
        <time>2017-04-17T11:03:43Z</time>
      </trkpt>
      <trkpt lat="44.45499" lon="5.03781">
        <ele>622.59</ele>
        <time>2017-04-17T11:03:58Z</time>
      </trkpt>
      <trkpt lat="44.45507" lon="5.03768">
        <ele>621.15</ele>
        <time>2017-04-17T11:04:14Z</time>
      </trkpt>
      <trkpt lat="44.45516" lon="5.03753">
        <ele>620.19</ele>
        <time>2017-04-17T11:04:31Z</time>
      </trkpt>
      <trkpt lat="44.45528" lon="5.03738">
        <ele>619.23</ele>
        <time>2017-04-17T11:04:49Z</time>
      </trkpt>
      <trkpt lat="44.45536" lon="5.03727">
        <ele>617.3</ele>
        <time>2017-04-17T11:05:03Z</time>
      </trkpt>
      <trkpt lat="44.45547" lon="5.03716">
        <ele>615.38</ele>
        <time>2017-04-17T11:05:20Z</time>
      </trkpt>
      <trkpt lat="44.45551" lon="5.0371">
        <ele>611.54</ele>
        <time>2017-04-17T11:05:28Z</time>
      </trkpt>
      <trkpt lat="44.45551" lon="5.03709">
        <ele>616.82</ele>
        <time>2017-04-17T11:05:29Z</time>
      </trkpt>
      <trkpt lat="44.45553" lon="5.03699">
        <ele>614.42</ele>
        <time>2017-04-17T11:05:47Z</time>
      </trkpt>
      <trkpt lat="44.45555" lon="5.03698">
        <ele>613.94</ele>
        <time>2017-04-17T11:06:15Z</time>
      </trkpt>
      <trkpt lat="44.45556" lon="5.03696">
        <ele>613.46</ele>
        <time>2017-04-17T11:06:34Z</time>
      </trkpt>
      <trkpt lat="44.45566" lon="5.03687">
        <ele>612.02</ele>
        <time>2017-04-17T11:06:50Z</time>
      </trkpt>
      <trkpt lat="44.45574" lon="5.03678">
        <ele>610.09</ele>
        <time>2017-04-17T11:07:05Z</time>
      </trkpt>
      <trkpt lat="44.4558" lon="5.0367">
        <ele>609.13</ele>
        <time>2017-04-17T11:07:21Z</time>
      </trkpt>
      <trkpt lat="44.45589" lon="5.03665">
        <ele>608.17</ele>
        <time>2017-04-17T11:07:35Z</time>
      </trkpt>
      <trkpt lat="44.456" lon="5.03659">
        <ele>606.25</ele>
        <time>2017-04-17T11:07:50Z</time>
      </trkpt>
      <trkpt lat="44.45601" lon="5.03657">
        <ele>606.25</ele>
        <time>2017-04-17T11:07:52Z</time>
      </trkpt>
      <trkpt lat="44.45615" lon="5.03653">
        <ele>604.33</ele>
        <time>2017-04-17T11:08:09Z</time>
      </trkpt>
      <trkpt lat="44.45627" lon="5.03654">
        <ele>604.33</ele>
        <time>2017-04-17T11:08:24Z</time>
      </trkpt>
      <trkpt lat="44.45633" lon="5.0365">
        <ele>602.88</ele>
        <time>2017-04-17T11:08:35Z</time>
      </trkpt>
      <trkpt lat="44.45638" lon="5.03651">
        <ele>604.81</ele>
        <time>2017-04-17T11:08:44Z</time>
      </trkpt>
      <trkpt lat="44.45636" lon="5.0365">
        <ele>603.36</ele>
        <time>2017-04-17T11:08:47Z</time>
      </trkpt>
      <trkpt lat="44.45631" lon="5.03647">
        <ele>605.77</ele>
        <time>2017-04-17T11:08:57Z</time>
      </trkpt>
      <trkpt lat="44.4563" lon="5.03645">
        <ele>603.36</ele>
        <time>2017-04-17T11:09:00Z</time>
      </trkpt>
      <trkpt lat="44.45621" lon="5.03636">
        <ele>601.44</ele>
        <time>2017-04-17T11:09:16Z</time>
      </trkpt>
      <trkpt lat="44.45614" lon="5.03632">
        <ele>601.44</ele>
        <time>2017-04-17T11:09:28Z</time>
      </trkpt>
      <trkpt lat="44.45613" lon="5.03631">
        <ele>600</ele>
        <time>2017-04-17T11:09:30Z</time>
      </trkpt>
      <trkpt lat="44.45604" lon="5.03628">
        <ele>598.56</ele>
        <time>2017-04-17T11:09:43Z</time>
      </trkpt>
      <trkpt lat="44.45594" lon="5.03623">
        <ele>596.64</ele>
        <time>2017-04-17T11:09:59Z</time>
      </trkpt>
      <trkpt lat="44.45584" lon="5.03619">
        <ele>593.75</ele>
        <time>2017-04-17T11:10:13Z</time>
      </trkpt>
      <trkpt lat="44.45571" lon="5.03614">
        <ele>591.83</ele>
        <time>2017-04-17T11:10:28Z</time>
      </trkpt>
      <trkpt lat="44.45561" lon="5.0361">
        <ele>590.39</ele>
        <time>2017-04-17T11:10:41Z</time>
      </trkpt>
      <trkpt lat="44.45555" lon="5.03607">
        <ele>589.91</ele>
        <time>2017-04-17T11:10:49Z</time>
      </trkpt>
      <trkpt lat="44.45545" lon="5.03604">
        <ele>587.98</ele>
        <time>2017-04-17T11:11:03Z</time>
      </trkpt>
      <trkpt lat="44.45535" lon="5.03602">
        <ele>585.58</ele>
        <time>2017-04-17T11:11:16Z</time>
      </trkpt>
      <trkpt lat="44.45524" lon="5.03599">
        <ele>582.7</ele>
        <time>2017-04-17T11:11:31Z</time>
      </trkpt>
      <trkpt lat="44.45512" lon="5.03595">
        <ele>580.29</ele>
        <time>2017-04-17T11:11:47Z</time>
      </trkpt>
      <trkpt lat="44.45504" lon="5.03592">
        <ele>578.37</ele>
        <time>2017-04-17T11:12:02Z</time>
      </trkpt>
      <trkpt lat="44.45493" lon="5.03588">
        <ele>575.97</ele>
        <time>2017-04-17T11:12:17Z</time>
      </trkpt>
      <trkpt lat="44.45482" lon="5.03581">
        <ele>573.56</ele>
        <time>2017-04-17T11:12:32Z</time>
      </trkpt>
      <trkpt lat="44.45471" lon="5.03575">
        <ele>570.2</ele>
        <time>2017-04-17T11:12:47Z</time>
      </trkpt>
      <trkpt lat="44.45471" lon="5.03575">
        <ele>570.2</ele>
        <time>2017-04-17T11:12:48Z</time>
      </trkpt>
      <trkpt lat="44.45468" lon="5.03575">
        <ele>570.2</ele>
        <time>2017-04-17T11:13:00Z</time>
      </trkpt>
      <trkpt lat="44.45463" lon="5.03564">
        <ele>569.24</ele>
        <time>2017-04-17T11:13:14Z</time>
      </trkpt>
      <trkpt lat="44.45464" lon="5.03557">
        <ele>567.8</ele>
        <time>2017-04-17T11:13:29Z</time>
      </trkpt>
      <trkpt lat="44.45465" lon="5.03556">
        <ele>568.76</ele>
        <time>2017-04-17T11:13:44Z</time>
      </trkpt>
      <trkpt lat="44.45469" lon="5.03552">
        <ele>567.32</ele>
        <time>2017-04-17T11:13:51Z</time>
      </trkpt>
      <trkpt lat="44.45478" lon="5.03546">
        <ele>565.39</ele>
        <time>2017-04-17T11:14:06Z</time>
      </trkpt>
      <trkpt lat="44.45481" lon="5.03539">
        <ele>563.95</ele>
        <time>2017-04-17T11:14:19Z</time>
      </trkpt>
      <trkpt lat="44.4548" lon="5.03537">
        <ele>563.95</ele>
        <time>2017-04-17T11:14:25Z</time>
      </trkpt>
      <trkpt lat="44.4548" lon="5.03535">
        <ele>563.47</ele>
        <time>2017-04-17T11:14:34Z</time>
      </trkpt>
      <trkpt lat="44.45484" lon="5.03522">
        <ele>562.03</ele>
        <time>2017-04-17T11:14:48Z</time>
      </trkpt>
      <trkpt lat="44.4549" lon="5.03514">
        <ele>558.66</ele>
        <time>2017-04-17T11:15:02Z</time>
      </trkpt>
      <trkpt lat="44.45498" lon="5.03501">
        <ele>558.18</ele>
        <time>2017-04-17T11:15:17Z</time>
      </trkpt>
      <trkpt lat="44.45506" lon="5.03492">
        <ele>557.7</ele>
        <time>2017-04-17T11:15:28Z</time>
      </trkpt>
      <trkpt lat="44.45517" lon="5.03484">
        <ele>556.26</ele>
        <time>2017-04-17T11:15:42Z</time>
      </trkpt>
      <trkpt lat="44.45521" lon="5.03481">
        <ele>555.78</ele>
        <time>2017-04-17T11:15:49Z</time>
      </trkpt>
      <trkpt lat="44.45522" lon="5.0348">
        <ele>554.82</ele>
        <time>2017-04-17T11:15:51Z</time>
      </trkpt>
      <trkpt lat="44.45534" lon="5.0347">
        <ele>552.9</ele>
        <time>2017-04-17T11:16:06Z</time>
      </trkpt>
      <trkpt lat="44.45541" lon="5.03457">
        <ele>551.93</ele>
        <time>2017-04-17T11:16:20Z</time>
      </trkpt>
      <trkpt lat="44.45541" lon="5.03447">
        <ele>549.53</ele>
        <time>2017-04-17T11:16:34Z</time>
      </trkpt>
      <trkpt lat="44.45538" lon="5.03433">
        <ele>549.05</ele>
        <time>2017-04-17T11:16:49Z</time>
      </trkpt>
      <trkpt lat="44.45539" lon="5.03423">
        <ele>547.13</ele>
        <time>2017-04-17T11:17:03Z</time>
      </trkpt>
      <trkpt lat="44.45539" lon="5.03421">
        <ele>548.57</ele>
        <time>2017-04-17T11:17:09Z</time>
      </trkpt>
      <trkpt lat="44.4554" lon="5.03409">
        <ele>547.61</ele>
        <time>2017-04-17T11:17:24Z</time>
      </trkpt>
      <trkpt lat="44.45542" lon="5.0339">
        <ele>545.2</ele>
        <time>2017-04-17T11:17:39Z</time>
      </trkpt>
      <trkpt lat="44.45544" lon="5.03383">
        <ele>544.24</ele>
        <time>2017-04-17T11:17:55Z</time>
      </trkpt>
      <trkpt lat="44.45537" lon="5.03378">
        <ele>544.24</ele>
        <time>2017-04-17T11:18:17Z</time>
      </trkpt>
      <trkpt lat="44.45526" lon="5.03374">
        <ele>546.17</ele>
        <time>2017-04-17T11:18:31Z</time>
      </trkpt>
      <trkpt lat="44.45505" lon="5.03369">
        <ele>546.17</ele>
        <time>2017-04-17T11:18:52Z</time>
      </trkpt>
      <trkpt lat="44.45501" lon="5.03363">
        <ele>546.17</ele>
        <time>2017-04-17T11:18:59Z</time>
      </trkpt>
      <trkpt lat="44.45493" lon="5.03349">
        <ele>544.72</ele>
        <time>2017-04-17T11:19:14Z</time>
      </trkpt>
      <trkpt lat="44.45485" lon="5.03335">
        <ele>543.76</ele>
        <time>2017-04-17T11:19:28Z</time>
      </trkpt>
      <trkpt lat="44.45478" lon="5.0332">
        <ele>541.36</ele>
        <time>2017-04-17T11:19:44Z</time>
      </trkpt>
      <trkpt lat="44.45476" lon="5.03311">
        <ele>541.36</ele>
        <time>2017-04-17T11:19:52Z</time>
      </trkpt>
      <trkpt lat="44.45472" lon="5.03294">
        <ele>540.4</ele>
        <time>2017-04-17T11:20:08Z</time>
      </trkpt>
      <trkpt lat="44.45472" lon="5.03287">
        <ele>539.92</ele>
        <time>2017-04-17T11:20:21Z</time>
      </trkpt>
      <trkpt lat="44.45469" lon="5.03271">
        <ele>538.96</ele>
        <time>2017-04-17T11:20:37Z</time>
      </trkpt>
      <trkpt lat="44.45465" lon="5.03262">
        <ele>537.99</ele>
        <time>2017-04-17T11:20:53Z</time>
      </trkpt>
      <trkpt lat="44.45462" lon="5.03253">
        <ele>537.03</ele>
        <time>2017-04-17T11:21:08Z</time>
      </trkpt>
      <trkpt lat="44.45455" lon="5.03238">
        <ele>534.15</ele>
        <time>2017-04-17T11:21:26Z</time>
      </trkpt>
      <trkpt lat="44.45448" lon="5.03224">
        <ele>533.67</ele>
        <time>2017-04-17T11:21:40Z</time>
      </trkpt>
      <trkpt lat="44.45449" lon="5.03227">
        <ele>533.67</ele>
        <time>2017-04-17T11:21:55Z</time>
      </trkpt>
      <trkpt lat="44.45448" lon="5.03227">
        <ele>533.19</ele>
        <time>2017-04-17T11:22:15Z</time>
      </trkpt>
      <trkpt lat="44.45448" lon="5.03226">
        <ele>535.11</ele>
        <time>2017-04-17T11:22:40Z</time>
      </trkpt>
      <trkpt lat="44.45444" lon="5.03216">
        <ele>533.67</ele>
        <time>2017-04-17T11:22:50Z</time>
      </trkpt>
      <trkpt lat="44.45437" lon="5.03202">
        <ele>533.67</ele>
        <time>2017-04-17T11:23:06Z</time>
      </trkpt>
      <trkpt lat="44.45431" lon="5.03191">
        <ele>533.67</ele>
        <time>2017-04-17T11:23:19Z</time>
      </trkpt>
      <trkpt lat="44.45426" lon="5.03184">
        <ele>533.19</ele>
        <time>2017-04-17T11:23:31Z</time>
      </trkpt>
      <trkpt lat="44.45419" lon="5.03172">
        <ele>532.71</ele>
        <time>2017-04-17T11:23:45Z</time>
      </trkpt>
      <trkpt lat="44.45417" lon="5.0317">
        <ele>534.15</ele>
        <time>2017-04-17T11:23:47Z</time>
      </trkpt>
      <trkpt lat="44.45409" lon="5.03159">
        <ele>535.59</ele>
        <time>2017-04-17T11:24:03Z</time>
      </trkpt>
      <trkpt lat="44.45402" lon="5.03149">
        <ele>535.59</ele>
        <time>2017-04-17T11:24:16Z</time>
      </trkpt>
      <trkpt lat="44.45397" lon="5.0314">
        <ele>537.03</ele>
        <time>2017-04-17T11:24:30Z</time>
      </trkpt>
      <trkpt lat="44.45388" lon="5.0313">
        <ele>537.99</ele>
        <time>2017-04-17T11:24:46Z</time>
      </trkpt>
      <trkpt lat="44.45378" lon="5.03117">
        <ele>536.55</ele>
        <time>2017-04-17T11:25:03Z</time>
      </trkpt>
      <trkpt lat="44.45369" lon="5.03106">
        <ele>537.99</ele>
        <time>2017-04-17T11:25:20Z</time>
      </trkpt>
      <trkpt lat="44.45363" lon="5.03097">
        <ele>537.99</ele>
        <time>2017-04-17T11:25:32Z</time>
      </trkpt>
      <trkpt lat="44.4536" lon="5.0309">
        <ele>540.4</ele>
        <time>2017-04-17T11:25:42Z</time>
      </trkpt>
      <trkpt lat="44.45354" lon="5.03081">
        <ele>540.88</ele>
        <time>2017-04-17T11:25:56Z</time>
      </trkpt>
      <trkpt lat="44.45354" lon="5.03081">
        <ele>540.88</ele>
        <time>2017-04-17T11:25:57Z</time>
      </trkpt>
      <trkpt lat="44.45346" lon="5.03064">
        <ele>538.48</ele>
        <time>2017-04-17T11:26:13Z</time>
      </trkpt>
      <trkpt lat="44.45341" lon="5.03054">
        <ele>537.99</ele>
        <time>2017-04-17T11:26:25Z</time>
      </trkpt>
      <trkpt lat="44.45337" lon="5.03046">
        <ele>536.55</ele>
        <time>2017-04-17T11:26:34Z</time>
      </trkpt>
      <trkpt lat="44.45335" lon="5.03042">
        <ele>536.07</ele>
        <time>2017-04-17T11:26:40Z</time>
      </trkpt>
      <trkpt lat="44.45331" lon="5.03033">
        <ele>535.59</ele>
        <time>2017-04-17T11:26:51Z</time>
      </trkpt>
      <trkpt lat="44.45325" lon="5.03019">
        <ele>534.15</ele>
        <time>2017-04-17T11:27:06Z</time>
      </trkpt>
      <trkpt lat="44.45323" lon="5.03009">
        <ele>535.59</ele>
        <time>2017-04-17T11:27:16Z</time>
      </trkpt>
      <trkpt lat="44.45318" lon="5.02993">
        <ele>534.15</ele>
        <time>2017-04-17T11:27:33Z</time>
      </trkpt>
      <trkpt lat="44.45311" lon="5.02983">
        <ele>532.71</ele>
        <time>2017-04-17T11:27:49Z</time>
      </trkpt>
      <trkpt lat="44.45307" lon="5.02972">
        <ele>531.27</ele>
        <time>2017-04-17T11:28:04Z</time>
      </trkpt>
      <trkpt lat="44.45301" lon="5.02957">
        <ele>529.34</ele>
        <time>2017-04-17T11:28:21Z</time>
      </trkpt>
      <trkpt lat="44.45299" lon="5.02944">
        <ele>527.42</ele>
        <time>2017-04-17T11:28:38Z</time>
      </trkpt>
      <trkpt lat="44.45295" lon="5.02933">
        <ele>525.5</ele>
        <time>2017-04-17T11:28:54Z</time>
      </trkpt>
      <trkpt lat="44.45287" lon="5.02922">
        <ele>522.61</ele>
        <time>2017-04-17T11:29:10Z</time>
      </trkpt>
      <trkpt lat="44.45283" lon="5.02914">
        <ele>520.69</ele>
        <time>2017-04-17T11:29:27Z</time>
      </trkpt>
      <trkpt lat="44.45277" lon="5.02904">
        <ele>519.25</ele>
        <time>2017-04-17T11:29:42Z</time>
      </trkpt>
      <trkpt lat="44.45273" lon="5.02896">
        <ele>517.33</ele>
        <time>2017-04-17T11:29:57Z</time>
      </trkpt>
      <trkpt lat="44.45267" lon="5.0289">
        <ele>514.92</ele>
        <time>2017-04-17T11:30:18Z</time>
      </trkpt>
      <trkpt lat="44.45261" lon="5.02891">
        <ele>512.04</ele>
        <time>2017-04-17T11:30:37Z</time>
      </trkpt>
      <trkpt lat="44.45255" lon="5.02887">
        <ele>510.12</ele>
        <time>2017-04-17T11:30:53Z</time>
      </trkpt>
      <trkpt lat="44.45249" lon="5.02879">
        <ele>508.19</ele>
        <time>2017-04-17T11:31:12Z</time>
      </trkpt>
      <trkpt lat="44.45245" lon="5.02873">
        <ele>507.23</ele>
        <time>2017-04-17T11:31:22Z</time>
      </trkpt>
      <trkpt lat="44.45241" lon="5.02864">
        <ele>505.31</ele>
        <time>2017-04-17T11:31:38Z</time>
      </trkpt>
      <trkpt lat="44.45237" lon="5.02857">
        <ele>502.91</ele>
        <time>2017-04-17T11:31:53Z</time>
      </trkpt>
      <trkpt lat="44.45232" lon="5.02851">
        <ele>500.5</ele>
        <time>2017-04-17T11:32:07Z</time>
      </trkpt>
      <trkpt lat="44.45232" lon="5.02848">
        <ele>500.5</ele>
        <time>2017-04-17T11:32:27Z</time>
      </trkpt>
      <trkpt lat="44.45227" lon="5.0284">
        <ele>498.58</ele>
        <time>2017-04-17T11:32:44Z</time>
      </trkpt>
      <trkpt lat="44.45226" lon="5.02835">
        <ele>498.1</ele>
        <time>2017-04-17T11:32:59Z</time>
      </trkpt>
      <trkpt lat="44.45224" lon="5.02826">
        <ele>496.66</ele>
        <time>2017-04-17T11:33:15Z</time>
      </trkpt>
      <trkpt lat="44.45221" lon="5.02815">
        <ele>495.7</ele>
        <time>2017-04-17T11:33:30Z</time>
      </trkpt>
      <trkpt lat="44.45219" lon="5.02805">
        <ele>494.26</ele>
        <time>2017-04-17T11:33:44Z</time>
      </trkpt>
      <trkpt lat="44.45214" lon="5.0279">
        <ele>491.37</ele>
        <time>2017-04-17T11:34:05Z</time>
      </trkpt>
      <trkpt lat="44.45211" lon="5.02777">
        <ele>490.89</ele>
        <time>2017-04-17T11:34:22Z</time>
      </trkpt>
      <trkpt lat="44.45207" lon="5.02767">
        <ele>488.49</ele>
        <time>2017-04-17T11:34:36Z</time>
      </trkpt>
      <trkpt lat="44.45202" lon="5.02757">
        <ele>487.05</ele>
        <time>2017-04-17T11:34:51Z</time>
      </trkpt>
      <trkpt lat="44.45199" lon="5.02747">
        <ele>485.12</ele>
        <time>2017-04-17T11:35:07Z</time>
      </trkpt>
      <trkpt lat="44.45192" lon="5.02733">
        <ele>482.72</ele>
        <time>2017-04-17T11:35:24Z</time>
      </trkpt>
      <trkpt lat="44.45187" lon="5.02724">
        <ele>480.8</ele>
        <time>2017-04-17T11:35:37Z</time>
      </trkpt>
      <trkpt lat="44.45183" lon="5.02711">
        <ele>478.39</ele>
        <time>2017-04-17T11:35:55Z</time>
      </trkpt>
      <trkpt lat="44.45178" lon="5.02701">
        <ele>476.47</ele>
        <time>2017-04-17T11:36:11Z</time>
      </trkpt>
      <trkpt lat="44.45175" lon="5.02692">
        <ele>474.55</ele>
        <time>2017-04-17T11:36:27Z</time>
      </trkpt>
      <trkpt lat="44.45172" lon="5.02682">
        <ele>472.63</ele>
        <time>2017-04-17T11:36:43Z</time>
      </trkpt>
      <trkpt lat="44.45168" lon="5.02671">
        <ele>470.7</ele>
        <time>2017-04-17T11:37:00Z</time>
      </trkpt>
      <trkpt lat="44.45166" lon="5.02658">
        <ele>468.3</ele>
        <time>2017-04-17T11:37:16Z</time>
      </trkpt>
      <trkpt lat="44.45161" lon="5.02648">
        <ele>468.3</ele>
        <time>2017-04-17T11:37:28Z</time>
      </trkpt>
      <trkpt lat="44.45157" lon="5.02646">
        <ele>466.86</ele>
        <time>2017-04-17T11:37:39Z</time>
      </trkpt>
      <trkpt lat="44.45148" lon="5.0264">
        <ele>463.01</ele>
        <time>2017-04-17T11:37:55Z</time>
      </trkpt>
      <trkpt lat="44.4514" lon="5.02633">
        <ele>461.57</ele>
        <time>2017-04-17T11:38:12Z</time>
      </trkpt>
      <trkpt lat="44.45135" lon="5.02633">
        <ele>460.13</ele>
        <time>2017-04-17T11:38:27Z</time>
      </trkpt>
      <trkpt lat="44.45135" lon="5.02632">
        <ele>461.09</ele>
        <time>2017-04-17T11:38:30Z</time>
      </trkpt>
      <trkpt lat="44.45135" lon="5.02631">
        <ele>459.65</ele>
        <time>2017-04-17T11:38:38Z</time>
      </trkpt>
      <trkpt lat="44.45135" lon="5.02631">
        <ele>459.17</ele>
        <time>2017-04-17T11:38:58Z</time>
      </trkpt>
      <trkpt lat="44.45134" lon="5.02632">
        <ele>460.13</ele>
        <time>2017-04-17T11:39:22Z</time>
      </trkpt>
      <trkpt lat="44.45136" lon="5.02632">
        <ele>462.05</ele>
        <time>2017-04-17T11:39:44Z</time>
      </trkpt>
      <trkpt lat="44.45136" lon="5.02632">
        <ele>460.61</ele>
        <time>2017-04-17T11:39:46Z</time>
      </trkpt>
      <trkpt lat="44.45136" lon="5.02632">
        <ele>458.69</ele>
        <time>2017-04-17T11:40:15Z</time>
      </trkpt>
      <trkpt lat="44.45136" lon="5.02632">
        <ele>460.13</ele>
        <time>2017-04-17T11:40:21Z</time>
      </trkpt>
      <trkpt lat="44.45136" lon="5.02632">
        <ele>460.13</ele>
        <time>2017-04-17T11:40:37Z</time>
      </trkpt>
      <trkpt lat="44.45136" lon="5.0263">
        <ele>459.17</ele>
        <time>2017-04-17T11:41:16Z</time>
      </trkpt>
      <trkpt lat="44.45135" lon="5.02629">
        <ele>460.61</ele>
        <time>2017-04-17T11:41:32Z</time>
      </trkpt>
      <trkpt lat="44.45132" lon="5.02628">
        <ele>459.17</ele>
        <time>2017-04-17T11:41:38Z</time>
      </trkpt>
      <trkpt lat="44.45129" lon="5.02629">
        <ele>460.61</ele>
        <time>2017-04-17T11:41:55Z</time>
      </trkpt>
      <trkpt lat="44.45127" lon="5.02628">
        <ele>459.17</ele>
        <time>2017-04-17T11:42:04Z</time>
      </trkpt>
      <trkpt lat="44.45121" lon="5.02626">
        <ele>458.69</ele>
        <time>2017-04-17T11:42:22Z</time>
      </trkpt>
      <trkpt lat="44.45116" lon="5.02623">
        <ele>455.8</ele>
        <time>2017-04-17T11:42:36Z</time>
      </trkpt>
      <trkpt lat="44.45111" lon="5.02618">
        <ele>454.36</ele>
        <time>2017-04-17T11:42:46Z</time>
      </trkpt>
      <trkpt lat="44.45105" lon="5.02614">
        <ele>452.92</ele>
        <time>2017-04-17T11:43:02Z</time>
      </trkpt>
      <trkpt lat="44.451" lon="5.02608">
        <ele>451</ele>
        <time>2017-04-17T11:43:17Z</time>
      </trkpt>
      <trkpt lat="44.45096" lon="5.02604">
        <ele>450.52</ele>
        <time>2017-04-17T11:43:25Z</time>
      </trkpt>
      <trkpt lat="44.45091" lon="5.02602">
        <ele>449.55</ele>
        <time>2017-04-17T11:43:40Z</time>
      </trkpt>
      <trkpt lat="44.45081" lon="5.02594">
        <ele>448.59</ele>
        <time>2017-04-17T11:43:55Z</time>
      </trkpt>
      <trkpt lat="44.45077" lon="5.02592">
        <ele>447.63</ele>
        <time>2017-04-17T11:44:14Z</time>
      </trkpt>
      <trkpt lat="44.4507" lon="5.0259">
        <ele>447.15</ele>
        <time>2017-04-17T11:44:28Z</time>
      </trkpt>
      <trkpt lat="44.45066" lon="5.02588">
        <ele>446.67</ele>
        <time>2017-04-17T11:44:48Z</time>
      </trkpt>
      <trkpt lat="44.45058" lon="5.02581">
        <ele>446.67</ele>
        <time>2017-04-17T11:45:04Z</time>
      </trkpt>
      <trkpt lat="44.45048" lon="5.02571">
        <ele>443.79</ele>
        <time>2017-04-17T11:45:20Z</time>
      </trkpt>
      <trkpt lat="44.45043" lon="5.02565">
        <ele>443.79</ele>
        <time>2017-04-17T11:45:28Z</time>
      </trkpt>
      <trkpt lat="44.45037" lon="5.02561">
        <ele>441.38</ele>
        <time>2017-04-17T11:45:43Z</time>
      </trkpt>
      <trkpt lat="44.45029" lon="5.0255">
        <ele>439.94</ele>
        <time>2017-04-17T11:46:00Z</time>
      </trkpt>
      <trkpt lat="44.45029" lon="5.02532">
        <ele>437.54</ele>
        <time>2017-04-17T11:46:16Z</time>
      </trkpt>
      <trkpt lat="44.4503" lon="5.02519">
        <ele>436.1</ele>
        <time>2017-04-17T11:46:32Z</time>
      </trkpt>
      <trkpt lat="44.4503" lon="5.02511">
        <ele>435.13</ele>
        <time>2017-04-17T11:46:46Z</time>
      </trkpt>
      <trkpt lat="44.45029" lon="5.02501">
        <ele>432.25</ele>
        <time>2017-04-17T11:47:02Z</time>
      </trkpt>
      <trkpt lat="44.45029" lon="5.02489">
        <ele>430.81</ele>
        <time>2017-04-17T11:47:17Z</time>
      </trkpt>
      <trkpt lat="44.4503" lon="5.02481">
        <ele>431.77</ele>
        <time>2017-04-17T11:47:26Z</time>
      </trkpt>
      <trkpt lat="44.45028" lon="5.02466">
        <ele>428.89</ele>
        <time>2017-04-17T11:47:41Z</time>
      </trkpt>
      <trkpt lat="44.4502" lon="5.02466">
        <ele>426.48</ele>
        <time>2017-04-17T11:47:57Z</time>
      </trkpt>
      <trkpt lat="44.45011" lon="5.02471">
        <ele>424.56</ele>
        <time>2017-04-17T11:48:12Z</time>
      </trkpt>
      <trkpt lat="44.45004" lon="5.02473">
        <ele>422.16</ele>
        <time>2017-04-17T11:48:27Z</time>
      </trkpt>
      <trkpt lat="44.44997" lon="5.02477">
        <ele>420.23</ele>
        <time>2017-04-17T11:48:42Z</time>
      </trkpt>
      <trkpt lat="44.44992" lon="5.02486">
        <ele>418.79</ele>
        <time>2017-04-17T11:48:57Z</time>
      </trkpt>
      <trkpt lat="44.44986" lon="5.02493">
        <ele>417.35</ele>
        <time>2017-04-17T11:49:13Z</time>
      </trkpt>
      <trkpt lat="44.44982" lon="5.02502">
        <ele>415.91</ele>
        <time>2017-04-17T11:49:26Z</time>
      </trkpt>
      <trkpt lat="44.44977" lon="5.02513">
        <ele>413.02</ele>
        <time>2017-04-17T11:49:45Z</time>
      </trkpt>
      <trkpt lat="44.44974" lon="5.02522">
        <ele>411.58</ele>
        <time>2017-04-17T11:50:03Z</time>
      </trkpt>
      <trkpt lat="44.44971" lon="5.02527">
        <ele>411.1</ele>
        <time>2017-04-17T11:50:21Z</time>
      </trkpt>
      <trkpt lat="44.44964" lon="5.02534">
        <ele>408.7</ele>
        <time>2017-04-17T11:50:37Z</time>
      </trkpt>
      <trkpt lat="44.44958" lon="5.02535">
        <ele>406.77</ele>
        <time>2017-04-17T11:50:47Z</time>
      </trkpt>
      <trkpt lat="44.44954" lon="5.02536">
        <ele>406.77</ele>
        <time>2017-04-17T11:50:52Z</time>
      </trkpt>
      <trkpt lat="44.44944" lon="5.02538">
        <ele>404.85</ele>
        <time>2017-04-17T11:51:06Z</time>
      </trkpt>
      <trkpt lat="44.44933" lon="5.02539">
        <ele>403.41</ele>
        <time>2017-04-17T11:51:21Z</time>
      </trkpt>
      <trkpt lat="44.44929" lon="5.02538">
        <ele>402.93</ele>
        <time>2017-04-17T11:51:26Z</time>
      </trkpt>
      <trkpt lat="44.44917" lon="5.02526">
        <ele>402.93</ele>
        <time>2017-04-17T11:51:41Z</time>
      </trkpt>
      <trkpt lat="44.44911" lon="5.0252">
        <ele>401.97</ele>
        <time>2017-04-17T11:51:49Z</time>
      </trkpt>
      <trkpt lat="44.44897" lon="5.0251">
        <ele>401.49</ele>
        <time>2017-04-17T11:52:04Z</time>
      </trkpt>
      <trkpt lat="44.44894" lon="5.02508">
        <ele>400.53</ele>
        <time>2017-04-17T11:52:07Z</time>
      </trkpt>
      <trkpt lat="44.44883" lon="5.02501">
        <ele>400.05</ele>
        <time>2017-04-17T11:52:21Z</time>
      </trkpt>
      <trkpt lat="44.44867" lon="5.02493">
        <ele>401.97</ele>
        <time>2017-04-17T11:52:38Z</time>
      </trkpt>
      <trkpt lat="44.44862" lon="5.02491">
        <ele>400.53</ele>
        <time>2017-04-17T11:52:42Z</time>
      </trkpt>
      <trkpt lat="44.44847" lon="5.02485">
        <ele>398.12</ele>
        <time>2017-04-17T11:52:58Z</time>
      </trkpt>
      <trkpt lat="44.44834" lon="5.02477">
        <ele>396.2</ele>
        <time>2017-04-17T11:53:14Z</time>
      </trkpt>
      <trkpt lat="44.44831" lon="5.02476">
        <ele>396.2</ele>
        <time>2017-04-17T11:53:17Z</time>
      </trkpt>
      <trkpt lat="44.44811" lon="5.0247">
        <ele>394.76</ele>
        <time>2017-04-17T11:53:37Z</time>
      </trkpt>
      <trkpt lat="44.44795" lon="5.02462">
        <ele>393.32</ele>
        <time>2017-04-17T11:53:56Z</time>
      </trkpt>
      <trkpt lat="44.44792" lon="5.02458">
        <ele>392.84</ele>
        <time>2017-04-17T11:54:09Z</time>
      </trkpt>
      <trkpt lat="44.44785" lon="5.02442">
        <ele>391.87</ele>
        <time>2017-04-17T11:54:25Z</time>
      </trkpt>
      <trkpt lat="44.44771" lon="5.02426">
        <ele>390.43</ele>
        <time>2017-04-17T11:54:45Z</time>
      </trkpt>
      <trkpt lat="44.44768" lon="5.02425">
        <ele>389.95</ele>
        <time>2017-04-17T11:54:48Z</time>
      </trkpt>
      <trkpt lat="44.44748" lon="5.02422">
        <ele>388.51</ele>
        <time>2017-04-17T11:55:08Z</time>
      </trkpt>
      <trkpt lat="44.44741" lon="5.02421">
        <ele>387.55</ele>
        <time>2017-04-17T11:55:22Z</time>
      </trkpt>
      <trkpt lat="44.44733" lon="5.02422">
        <ele>386.59</ele>
        <time>2017-04-17T11:55:38Z</time>
      </trkpt>
      <trkpt lat="44.44716" lon="5.02429">
        <ele>386.11</ele>
        <time>2017-04-17T11:55:54Z</time>
      </trkpt>
      <trkpt lat="44.44695" lon="5.02434">
        <ele>385.15</ele>
        <time>2017-04-17T11:56:14Z</time>
      </trkpt>
      <trkpt lat="44.44679" lon="5.02437">
        <ele>383.22</ele>
        <time>2017-04-17T11:56:30Z</time>
      </trkpt>
      <trkpt lat="44.44664" lon="5.02429">
        <ele>382.74</ele>
        <time>2017-04-17T11:56:50Z</time>
      </trkpt>
      <trkpt lat="44.44663" lon="5.02427">
        <ele>382.74</ele>
        <time>2017-04-17T11:56:52Z</time>
      </trkpt>
      <trkpt lat="44.44645" lon="5.02407">
        <ele>382.26</ele>
        <time>2017-04-17T11:57:13Z</time>
      </trkpt>
      <trkpt lat="44.44629" lon="5.02395">
        <ele>381.78</ele>
        <time>2017-04-17T11:57:30Z</time>
      </trkpt>
      <trkpt lat="44.44612" lon="5.02385">
        <ele>380.82</ele>
        <time>2017-04-17T11:57:49Z</time>
      </trkpt>
      <trkpt lat="44.44597" lon="5.02372">
        <ele>379.86</ele>
        <time>2017-04-17T11:58:06Z</time>
      </trkpt>
      <trkpt lat="44.44591" lon="5.0236">
        <ele>379.38</ele>
        <time>2017-04-17T11:58:17Z</time>
      </trkpt>
      <trkpt lat="44.44586" lon="5.02343">
        <ele>376.49</ele>
        <time>2017-04-17T11:58:31Z</time>
      </trkpt>
      <trkpt lat="44.44585" lon="5.0234">
        <ele>378.9</ele>
        <time>2017-04-17T11:58:33Z</time>
      </trkpt>
      <trkpt lat="44.44585" lon="5.02331">
        <ele>377.94</ele>
        <time>2017-04-17T11:58:39Z</time>
      </trkpt>
      <trkpt lat="44.44591" lon="5.02311">
        <ele>376.49</ele>
        <time>2017-04-17T11:58:54Z</time>
      </trkpt>
      <trkpt lat="44.44592" lon="5.0231">
        <ele>374.57</ele>
        <time>2017-04-17T11:58:58Z</time>
      </trkpt>
      <trkpt lat="44.44595" lon="5.02307">
        <ele>376.01</ele>
        <time>2017-04-17T11:59:11Z</time>
      </trkpt>
      <trkpt lat="44.44602" lon="5.02285">
        <ele>376.97</ele>
        <time>2017-04-17T11:59:28Z</time>
      </trkpt>
      <trkpt lat="44.4461" lon="5.0226">
        <ele>377.45</ele>
        <time>2017-04-17T11:59:46Z</time>
      </trkpt>
      <trkpt lat="44.44612" lon="5.02253">
        <ele>376.01</ele>
        <time>2017-04-17T11:59:51Z</time>
      </trkpt>
      <trkpt lat="44.44619" lon="5.02232">
        <ele>376.01</ele>
        <time>2017-04-17T12:00:08Z</time>
      </trkpt>
      <trkpt lat="44.44623" lon="5.02221">
        <ele>376.01</ele>
        <time>2017-04-17T12:00:17Z</time>
      </trkpt>
      <trkpt lat="44.44628" lon="5.02202">
        <ele>373.13</ele>
        <time>2017-04-17T12:00:34Z</time>
      </trkpt>
      <trkpt lat="44.44634" lon="5.02178">
        <ele>370.73</ele>
        <time>2017-04-17T12:00:52Z</time>
      </trkpt>
      <trkpt lat="44.44639" lon="5.02156">
        <ele>369.76</ele>
        <time>2017-04-17T12:01:09Z</time>
      </trkpt>
      <trkpt lat="44.44639" lon="5.02137">
        <ele>367.36</ele>
        <time>2017-04-17T12:01:28Z</time>
      </trkpt>
      <trkpt lat="44.44639" lon="5.02137">
        <ele>367.36</ele>
        <time>2017-04-17T12:01:29Z</time>
      </trkpt>
      <trkpt lat="44.44636" lon="5.02137">
        <ele>366.88</ele>
        <time>2017-04-17T12:01:32Z</time>
      </trkpt>
      <trkpt lat="44.44621" lon="5.02152">
        <ele>365.92</ele>
        <time>2017-04-17T12:01:52Z</time>
      </trkpt>
      <trkpt lat="44.44611" lon="5.02163">
        <ele>365.44</ele>
        <time>2017-04-17T12:02:05Z</time>
      </trkpt>
      <trkpt lat="44.44599" lon="5.02174">
        <ele>364</ele>
        <time>2017-04-17T12:02:18Z</time>
      </trkpt>
      <trkpt lat="44.44582" lon="5.02187">
        <ele>362.55</ele>
        <time>2017-04-17T12:02:35Z</time>
      </trkpt>
      <trkpt lat="44.44567" lon="5.02194">
        <ele>361.11</ele>
        <time>2017-04-17T12:02:51Z</time>
      </trkpt>
      <trkpt lat="44.44554" lon="5.02203">
        <ele>359.67</ele>
        <time>2017-04-17T12:03:07Z</time>
      </trkpt>
      <trkpt lat="44.44542" lon="5.02218">
        <ele>358.23</ele>
        <time>2017-04-17T12:03:23Z</time>
      </trkpt>
      <trkpt lat="44.44528" lon="5.02237">
        <ele>358.23</ele>
        <time>2017-04-17T12:03:41Z</time>
      </trkpt>
      <trkpt lat="44.4452" lon="5.02249">
        <ele>356.79</ele>
        <time>2017-04-17T12:03:52Z</time>
      </trkpt>
      <trkpt lat="44.44503" lon="5.02264">
        <ele>354.38</ele>
        <time>2017-04-17T12:04:10Z</time>
      </trkpt>
      <trkpt lat="44.44495" lon="5.02271">
        <ele>353.42</ele>
        <time>2017-04-17T12:04:23Z</time>
      </trkpt>
      <trkpt lat="44.44481" lon="5.02281">
        <ele>350.54</ele>
        <time>2017-04-17T12:04:40Z</time>
      </trkpt>
      <trkpt lat="44.44467" lon="5.0229">
        <ele>348.13</ele>
        <time>2017-04-17T12:04:56Z</time>
      </trkpt>
      <trkpt lat="44.44454" lon="5.02299">
        <ele>347.17</ele>
        <time>2017-04-17T12:05:12Z</time>
      </trkpt>
      <trkpt lat="44.44448" lon="5.02304">
        <ele>346.21</ele>
        <time>2017-04-17T12:05:19Z</time>
      </trkpt>
      <trkpt lat="44.44436" lon="5.02316">
        <ele>345.25</ele>
        <time>2017-04-17T12:05:33Z</time>
      </trkpt>
      <trkpt lat="44.44428" lon="5.02327">
        <ele>344.29</ele>
        <time>2017-04-17T12:05:50Z</time>
      </trkpt>
      <trkpt lat="44.44428" lon="5.02328">
        <ele>344.29</ele>
        <time>2017-04-17T12:05:51Z</time>
      </trkpt>
      <trkpt lat="44.44416" lon="5.0234">
        <ele>341.89</ele>
        <time>2017-04-17T12:06:07Z</time>
      </trkpt>
      <trkpt lat="44.44402" lon="5.02348">
        <ele>339.48</ele>
        <time>2017-04-17T12:06:24Z</time>
      </trkpt>
      <trkpt lat="44.44395" lon="5.02349">
        <ele>339.96</ele>
        <time>2017-04-17T12:06:40Z</time>
      </trkpt>
      <trkpt lat="44.44396" lon="5.02351">
        <ele>338.52</ele>
        <time>2017-04-17T12:07:02Z</time>
      </trkpt>
      <trkpt lat="44.44389" lon="5.02355">
        <ele>337.08</ele>
        <time>2017-04-17T12:07:16Z</time>
      </trkpt>
      <trkpt lat="44.44386" lon="5.02359">
        <ele>336.6</ele>
        <time>2017-04-17T12:07:20Z</time>
      </trkpt>
      <trkpt lat="44.44379" lon="5.02364">
        <ele>336.6</ele>
        <time>2017-04-17T12:07:35Z</time>
      </trkpt>
      <trkpt lat="44.44378" lon="5.02363">
        <ele>336.6</ele>
        <time>2017-04-17T12:07:59Z</time>
      </trkpt>
      <trkpt lat="44.44377" lon="5.0237">
        <ele>336.6</ele>
        <time>2017-04-17T12:08:11Z</time>
      </trkpt>
      <trkpt lat="44.44379" lon="5.02374">
        <ele>337.56</ele>
        <time>2017-04-17T12:08:30Z</time>
      </trkpt>
      <trkpt lat="44.44369" lon="5.02391">
        <ele>337.56</ele>
        <time>2017-04-17T12:08:46Z</time>
      </trkpt>
      <trkpt lat="44.44363" lon="5.02409">
        <ele>338.52</ele>
        <time>2017-04-17T12:09:02Z</time>
      </trkpt>
      <trkpt lat="44.44355" lon="5.0242">
        <ele>339.96</ele>
        <time>2017-04-17T12:09:20Z</time>
      </trkpt>
      <trkpt lat="44.4435" lon="5.02422">
        <ele>339.48</ele>
        <time>2017-04-17T12:09:34Z</time>
      </trkpt>
      <trkpt lat="44.44348" lon="5.02423">
        <ele>339.48</ele>
        <time>2017-04-17T12:09:37Z</time>
      </trkpt>
      <trkpt lat="44.44338" lon="5.0242">
        <ele>339</ele>
        <time>2017-04-17T12:09:53Z</time>
      </trkpt>
      <trkpt lat="44.44337" lon="5.02416">
        <ele>339.48</ele>
        <time>2017-04-17T12:10:10Z</time>
      </trkpt>
      <trkpt lat="44.44331" lon="5.02411">
        <ele>338.52</ele>
        <time>2017-04-17T12:10:20Z</time>
      </trkpt>
      <trkpt lat="44.44317" lon="5.02395">
        <ele>337.56</ele>
        <time>2017-04-17T12:10:38Z</time>
      </trkpt>
      <trkpt lat="44.44304" lon="5.02382">
        <ele>337.08</ele>
        <time>2017-04-17T12:10:54Z</time>
      </trkpt>
      <trkpt lat="44.44293" lon="5.0237">
        <ele>337.08</ele>
        <time>2017-04-17T12:11:09Z</time>
      </trkpt>
      <trkpt lat="44.44281" lon="5.02358">
        <ele>336.6</ele>
        <time>2017-04-17T12:11:24Z</time>
      </trkpt>
      <trkpt lat="44.44268" lon="5.02344">
        <ele>336.6</ele>
        <time>2017-04-17T12:11:40Z</time>
      </trkpt>
      <trkpt lat="44.44255" lon="5.02331">
        <ele>335.64</ele>
        <time>2017-04-17T12:11:56Z</time>
      </trkpt>
      <trkpt lat="44.44243" lon="5.02317">
        <ele>336.12</ele>
        <time>2017-04-17T12:12:11Z</time>
      </trkpt>
      <trkpt lat="44.44235" lon="5.02312">
        <ele>336.6</ele>
        <time>2017-04-17T12:12:21Z</time>
      </trkpt>
      <trkpt lat="44.44224" lon="5.02314">
        <ele>336.12</ele>
        <time>2017-04-17T12:12:36Z</time>
      </trkpt>
      <trkpt lat="44.4421" lon="5.02318">
        <ele>336.12</ele>
        <time>2017-04-17T12:12:51Z</time>
      </trkpt>
      <trkpt lat="44.44197" lon="5.02327">
        <ele>335.64</ele>
        <time>2017-04-17T12:13:09Z</time>
      </trkpt>
      <trkpt lat="44.44188" lon="5.02333">
        <ele>335.16</ele>
        <time>2017-04-17T12:13:24Z</time>
      </trkpt>
      <trkpt lat="44.44185" lon="5.02337">
        <ele>334.68</ele>
        <time>2017-04-17T12:13:45Z</time>
      </trkpt>
      <trkpt lat="44.44183" lon="5.02339">
        <ele>334.68</ele>
        <time>2017-04-17T12:13:48Z</time>
      </trkpt>
      <trkpt lat="44.44166" lon="5.02352">
        <ele>333.23</ele>
        <time>2017-04-17T12:14:08Z</time>
      </trkpt>
      <trkpt lat="44.4415" lon="5.02363">
        <ele>331.31</ele>
        <time>2017-04-17T12:14:26Z</time>
      </trkpt>
      <trkpt lat="44.44133" lon="5.02377">
        <ele>329.87</ele>
        <time>2017-04-17T12:14:46Z</time>
      </trkpt>
      <trkpt lat="44.44121" lon="5.02388">
        <ele>328.91</ele>
        <time>2017-04-17T12:15:03Z</time>
      </trkpt>
      <trkpt lat="44.44121" lon="5.02388">
        <ele>329.39</ele>
        <time>2017-04-17T12:15:22Z</time>
      </trkpt>
      <trkpt lat="44.44128" lon="5.0238">
        <ele>329.87</ele>
        <time>2017-04-17T12:15:35Z</time>
      </trkpt>
      <trkpt lat="44.44129" lon="5.02363">
        <ele>329.87</ele>
        <time>2017-04-17T12:15:51Z</time>
      </trkpt>
      <trkpt lat="44.4413" lon="5.02356">
        <ele>328.43</ele>
        <time>2017-04-17T12:16:01Z</time>
      </trkpt>
      <trkpt lat="44.44136" lon="5.02342">
        <ele>326.5</ele>
        <time>2017-04-17T12:16:17Z</time>
      </trkpt>
      <trkpt lat="44.44143" lon="5.02329">
        <ele>324.1</ele>
        <time>2017-04-17T12:16:34Z</time>
      </trkpt>
      <trkpt lat="44.44049" lon="5.02224">
        <ele>313.05</ele>
        <time>2017-04-17T12:20:00Z</time>
      </trkpt>
      <trkpt lat="44.44043" lon="5.02229">
        <ele>313.05</ele>
        <time>2017-04-17T12:20:01Z</time>
      </trkpt>
      <trkpt lat="44.44038" lon="5.02236">
        <ele>313.05</ele>
        <time>2017-04-17T12:20:02Z</time>
      </trkpt>
      <trkpt lat="44.44061" lon="5.02137">
        <ele>313.05</ele>
        <time>2017-04-17T12:20:08Z</time>
      </trkpt>
      <trkpt lat="44.44025" lon="5.02189">
        <ele>311.6</ele>
        <time>2017-04-17T12:20:26Z</time>
      </trkpt>
      <trkpt lat="44.44003" lon="5.02205">
        <ele>311.12</ele>
        <time>2017-04-17T12:20:41Z</time>
      </trkpt>
      <trkpt lat="44.43984" lon="5.02203">
        <ele>310.64</ele>
        <time>2017-04-17T12:20:57Z</time>
      </trkpt>
      <trkpt lat="44.43963" lon="5.02193">
        <ele>309.68</ele>
        <time>2017-04-17T12:21:16Z</time>
      </trkpt>
      <trkpt lat="44.43947" lon="5.02182">
        <ele>309.68</ele>
        <time>2017-04-17T12:21:33Z</time>
      </trkpt>
      <trkpt lat="44.4393" lon="5.0217">
        <ele>309.68</ele>
        <time>2017-04-17T12:21:51Z</time>
      </trkpt>
      <trkpt lat="44.43914" lon="5.02157">
        <ele>309.2</ele>
        <time>2017-04-17T12:22:09Z</time>
      </trkpt>
      <trkpt lat="44.43896" lon="5.02145">
        <ele>306.8</ele>
        <time>2017-04-17T12:22:28Z</time>
      </trkpt>
      <trkpt lat="44.43893" lon="5.02143">
        <ele>306.8</ele>
        <time>2017-04-17T12:22:31Z</time>
      </trkpt>
      <trkpt lat="44.43892" lon="5.02142">
        <ele>306.8</ele>
        <time>2017-04-17T12:22:33Z</time>
      </trkpt>
      <trkpt lat="44.43885" lon="5.02135">
        <ele>306.8</ele>
        <time>2017-04-17T12:22:42Z</time>
      </trkpt>
      <trkpt lat="44.43886" lon="5.02124">
        <ele>306.32</ele>
        <time>2017-04-17T12:22:51Z</time>
      </trkpt>
      <trkpt lat="44.43895" lon="5.02103">
        <ele>305.84</ele>
        <time>2017-04-17T12:23:08Z</time>
      </trkpt>
      <trkpt lat="44.43895" lon="5.02102">
        <ele>305.84</ele>
        <time>2017-04-17T12:23:09Z</time>
      </trkpt>
      <trkpt lat="44.43891" lon="5.02094">
        <ele>304.88</ele>
        <time>2017-04-17T12:23:15Z</time>
      </trkpt>
      <trkpt lat="44.43872" lon="5.0208">
        <ele>303.91</ele>
        <time>2017-04-17T12:23:33Z</time>
      </trkpt>
      <trkpt lat="44.43866" lon="5.02075">
        <ele>303.43</ele>
        <time>2017-04-17T12:23:39Z</time>
      </trkpt>
      <trkpt lat="44.43859" lon="5.02068">
        <ele>301.99</ele>
        <time>2017-04-17T12:23:44Z</time>
      </trkpt>
      <trkpt lat="44.43843" lon="5.02056">
        <ele>301.99</ele>
        <time>2017-04-17T12:24:00Z</time>
      </trkpt>
      <trkpt lat="44.4383" lon="5.02041">
        <ele>301.51</ele>
        <time>2017-04-17T12:24:17Z</time>
      </trkpt>
      <trkpt lat="44.4381" lon="5.02028">
        <ele>301.99</ele>
        <time>2017-04-17T12:24:36Z</time>
      </trkpt>
      <trkpt lat="44.43792" lon="5.02014">
        <ele>300.55</ele>
        <time>2017-04-17T12:24:56Z</time>
      </trkpt>
      <trkpt lat="44.43784" lon="5.02006">
        <ele>300.07</ele>
        <time>2017-04-17T12:25:06Z</time>
      </trkpt>
      <trkpt lat="44.43785" lon="5.01981">
        <ele>298.63</ele>
        <time>2017-04-17T12:25:23Z</time>
      </trkpt>
      <trkpt lat="44.43786" lon="5.01959">
        <ele>298.63</ele>
        <time>2017-04-17T12:25:38Z</time>
      </trkpt>
      <trkpt lat="44.43789" lon="5.0193">
        <ele>298.63</ele>
        <time>2017-04-17T12:25:56Z</time>
      </trkpt>
      <trkpt lat="44.43794" lon="5.01908">
        <ele>298.15</ele>
        <time>2017-04-17T12:26:11Z</time>
      </trkpt>
      <trkpt lat="44.43802" lon="5.01882">
        <ele>298.15</ele>
        <time>2017-04-17T12:26:31Z</time>
      </trkpt>
      <trkpt lat="44.43806" lon="5.01865">
        <ele>297.67</ele>
        <time>2017-04-17T12:26:47Z</time>
      </trkpt>
      <trkpt lat="44.43803" lon="5.01855">
        <ele>297.67</ele>
        <time>2017-04-17T12:27:01Z</time>
      </trkpt>
      <trkpt lat="44.43801" lon="5.01854">
        <ele>297.67</ele>
        <time>2017-04-17T12:27:05Z</time>
      </trkpt>
      <trkpt lat="44.43785" lon="5.01854">
        <ele>297.67</ele>
        <time>2017-04-17T12:27:21Z</time>
      </trkpt>
      <trkpt lat="44.43766" lon="5.01856">
        <ele>297.67</ele>
        <time>2017-04-17T12:27:38Z</time>
      </trkpt>
      <trkpt lat="44.43763" lon="5.01858">
        <ele>297.67</ele>
        <time>2017-04-17T12:27:41Z</time>
      </trkpt>
      <trkpt lat="44.43748" lon="5.01861">
        <ele>299.11</ele>
        <time>2017-04-17T12:27:56Z</time>
      </trkpt>
      <trkpt lat="44.43734" lon="5.01866">
        <ele>299.11</ele>
        <time>2017-04-17T12:28:10Z</time>
      </trkpt>
      <trkpt lat="44.43733" lon="5.01867">
        <ele>299.11</ele>
        <time>2017-04-17T12:28:11Z</time>
      </trkpt>
      <trkpt lat="44.43725" lon="5.0187">
        <ele>299.59</ele>
        <time>2017-04-17T12:28:24Z</time>
      </trkpt>
      <trkpt lat="44.43715" lon="5.01866">
        <ele>301.51</ele>
        <time>2017-04-17T12:28:38Z</time>
      </trkpt>
      <trkpt lat="44.43712" lon="5.01864">
        <ele>301.51</ele>
        <time>2017-04-17T12:28:41Z</time>
      </trkpt>
      <trkpt lat="44.43708" lon="5.0186">
        <ele>300.07</ele>
        <time>2017-04-17T12:28:46Z</time>
      </trkpt>
      <trkpt lat="44.43695" lon="5.01852">
        <ele>299.11</ele>
        <time>2017-04-17T12:29:00Z</time>
      </trkpt>
      <trkpt lat="44.43693" lon="5.01849">
        <ele>299.11</ele>
        <time>2017-04-17T12:29:05Z</time>
      </trkpt>
      <trkpt lat="44.4369" lon="5.01847">
        <ele>299.11</ele>
        <time>2017-04-17T12:29:07Z</time>
      </trkpt>
      <trkpt lat="44.43688" lon="5.01844">
        <ele>299.11</ele>
        <time>2017-04-17T12:29:11Z</time>
      </trkpt>
      <trkpt lat="44.43686" lon="5.01843">
        <ele>298.63</ele>
        <time>2017-04-17T12:29:12Z</time>
      </trkpt>
      <trkpt lat="44.43685" lon="5.01841">
        <ele>298.63</ele>
        <time>2017-04-17T12:29:13Z</time>
      </trkpt>
      <trkpt lat="44.43683" lon="5.01839">
        <ele>298.15</ele>
        <time>2017-04-17T12:29:17Z</time>
      </trkpt>
      <trkpt lat="44.43681" lon="5.01837">
        <ele>298.15</ele>
        <time>2017-04-17T12:29:18Z</time>
      </trkpt>
      <trkpt lat="44.43672" lon="5.01832">
        <ele>298.15</ele>
        <time>2017-04-17T12:29:27Z</time>
      </trkpt>
      <trkpt lat="44.43664" lon="5.01823">
        <ele>298.15</ele>
        <time>2017-04-17T12:29:36Z</time>
      </trkpt>
      <trkpt lat="44.43661" lon="5.01811">
        <ele>297.67</ele>
        <time>2017-04-17T12:29:45Z</time>
      </trkpt>
      <trkpt lat="44.43661" lon="5.01798">
        <ele>297.67</ele>
        <time>2017-04-17T12:29:54Z</time>
      </trkpt>
      <trkpt lat="44.43663" lon="5.01785">
        <ele>296.22</ele>
        <time>2017-04-17T12:30:02Z</time>
      </trkpt>
      <trkpt lat="44.43664" lon="5.01772">
        <ele>296.22</ele>
        <time>2017-04-17T12:30:10Z</time>
      </trkpt>
      <trkpt lat="44.43667" lon="5.01753">
        <ele>295.74</ele>
        <time>2017-04-17T12:30:22Z</time>
      </trkpt>
      <trkpt lat="44.43667" lon="5.01749">
        <ele>295.74</ele>
        <time>2017-04-17T12:30:26Z</time>
      </trkpt>
      <trkpt lat="44.43667" lon="5.01746">
        <ele>295.26</ele>
        <time>2017-04-17T12:30:27Z</time>
      </trkpt>
      <trkpt lat="44.43672" lon="5.01717">
        <ele>295.26</ele>
        <time>2017-04-17T12:30:46Z</time>
      </trkpt>
      <trkpt lat="44.43672" lon="5.01713">
        <ele>294.78</ele>
        <time>2017-04-17T12:30:51Z</time>
      </trkpt>
      <trkpt lat="44.43673" lon="5.01711">
        <ele>294.78</ele>
        <time>2017-04-17T12:30:52Z</time>
      </trkpt>
      <trkpt lat="44.43672" lon="5.01706">
        <ele>294.78</ele>
        <time>2017-04-17T12:30:59Z</time>
      </trkpt>
      <trkpt lat="44.43671" lon="5.01705">
        <ele>295.74</ele>
        <time>2017-04-17T12:31:00Z</time>
      </trkpt>
      <trkpt lat="44.4367" lon="5.01702">
        <ele>294.3</ele>
        <time>2017-04-17T12:31:10Z</time>
      </trkpt>
      <trkpt lat="44.4367" lon="5.01701">
        <ele>295.74</ele>
        <time>2017-04-17T12:31:17Z</time>
      </trkpt>
    </trkseg>
  </trk>
</gpx>